Wetterdaten: Dienstag, 31.03.2020
Datum Zeit Temp. Aussen Temp. o. S. Temp +5cm Feuchte Auss Luftdruck Regen Sonnenschein Regendauer Solar Windben Empfang
31.03.2020 00:00 4,9 C 3,3 C 2,8 C 88 % 1028,0 hPa 0,0 l/m 0 min 0 min 0 W/m 0,0 km/h (0 Bft) 96,36 %
31.03.2020 00:02 4,9 C 3,3 C 2,8 C 88 % 1028,0 hPa 0,0 l/m 0 min 0 min 0 W/m 0,0 km/h (0 Bft) 90,48 %
31.03.2020 00:04 4,9 C 3,3 C 2,8 C 88 % 1028,0 hPa 0,0 l/m 0 min 0 min 0 W/m 0,0 km/h (0 Bft) 95,74 %
31.03.2020 00:08 4,8 C 3,3 C 2,8 C 88 % 1028,0 hPa 0,0 l/m 0 min 0 min 0 W/m 0,0 km/h (0 Bft) 93,81 %
31.03.2020 00:10 4,8 C 3,3 C 2,8 C 88 % 1028,0 hPa 0,0 l/m 0 min 0 min 0 W/m 0,0 km/h (0 Bft) 97,22 %
31.03.2020 00:12 4,8 C 3,3 C 2,8 C 88 % 1028,0 hPa 0,0 l/m 0 min 0 min 0 W/m 3,2 km/h (1 Bft) 95,74 %
31.03.2020 00:14 4,8 C 3,3 C 2,8 C 88 % 1028,0 hPa 0,0 l/m 0 min 0 min 0 W/m 0,0 km/h (0 Bft) 94,44 %
31.03.2020 00:16 4,8 C 3,3 C 2,8 C 88 % 1028,0 hPa 0,0 l/m 0 min 0 min 0 W/m 0,0 km/h (0 Bft) 96,00 %
31.03.2020 00:18 4,7 C 3,3 C 2,8 C 88 % 1028,0 hPa 0,0 l/m 0 min 0 min 0 W/m 0,0 km/h (0 Bft) 95,74 %
31.03.2020 00:20 4,7 C 3,3 C 2,8 C 88 % 1028,0 hPa 0,0 l/m 0 min 0 min 0 W/m 0,0 km/h (0 Bft) 56,76 %
31.03.2020 00:22 4,7 C 3,3 C 2,8 C 88 % 1028,0 hPa 0,0 l/m 0 min 0 min 0 W/m 0,0 km/h (0 Bft) 86,67 %
31.03.2020 00:24 4,7 C 3,3 C 2,8 C 89 % 1028,0 hPa 0,0 l/m 0 min 0 min 0 W/m 0,0 km/h (0 Bft) 95,74 %
31.03.2020 00:26 4,7 C 3,3 C 2,8 C 89 % 1028,0 hPa 0,0 l/m 0 min 0 min 0 W/m 0,0 km/h (0 Bft) 97,87 %
31.03.2020 00:28 4,7 C 3,3 C 2,8 C 89 % 1028,0 hPa 0,0 l/m 0 min 0 min 0 W/m 0,0 km/h (0 Bft) 98,15 %
31.03.2020 00:30 4,6 C 3,3 C 2,8 C 89 % 1028,0 hPa 0,0 l/m 0 min 0 min 0 W/m 3,2 km/h (1 Bft) 98,00 %
31.03.2020 00:32 4,6 C 3,3 C 2,8 C 89 % 1028,0 hPa 0,0 l/m 0 min 0 min 0 W/m 0,0 km/h (0 Bft) 94,59 %
31.03.2020 00:34 4,6 C 3,3 C 2,8 C 89 % 1028,0 hPa 0,0 l/m 0 min 0 min 0 W/m 0,0 km/h (0 Bft) 97,83 %
31.03.2020 00:36 4,6 C 3,3 C 2,8 C 89 % 1028,0 hPa 0,0 l/m 0 min 0 min 0 W/m 0,0 km/h (0 Bft) 98,18 %
31.03.2020 00:38 4,6 C 3,3 C 2,8 C 89 % 1028,0 hPa 0,0 l/m 0 min 0 min 0 W/m 3,2 km/h (1 Bft) 95,65 %
31.03.2020 00:40 4,6 C 3,3 C 2,8 C 89 % 1028,0 hPa 0,0 l/m 0 min 0 min 0 W/m 3,2 km/h (1 Bft) 95,74 %
31.03.2020 00:42 4,6 C 3,3 C 2,8 C 90 % 1028,0 hPa 0,0 l/m 0 min 0 min 0 W/m 6,4 km/h (2 Bft) 96,00 %
31.03.2020 00:44 4,5 C 3,3 C 2,8 C 90 % 1028,0 hPa 0,0 l/m 0 min 0 min 0 W/m 6,4 km/h (2 Bft) 95,74 %
31.03.2020 00:46 4,5 C 3,3 C 2,8 C 90 % 1028,0 hPa 0,0 l/m 0 min 0 min 0 W/m 3,2 km/h (1 Bft) 97,22 %
31.03.2020 00:48 4,4 C 3,3 C 2,8 C 90 % 1028,1 hPa 0,0 l/m 0 min 0 min 0 W/m 3,2 km/h (1 Bft) 97,87 %
31.03.2020 00:50 4,4 C 3,3 C 2,8 C 90 % 1028,1 hPa 0,0 l/m 0 min 0 min 0 W/m 0,0 km/h (0 Bft) 100,00 %
31.03.2020 00:52 4,4 C 3,3 C 2,8 C 90 % 1028,0 hPa 0,0 l/m 0 min 0 min 0 W/m 0,0 km/h (0 Bft) 100,00 %
31.03.2020 00:54 4,4 C 3,3 C 2,8 C 90 % 1028,0 hPa 0,0 l/m 0 min 0 min 0 W/m 0,0 km/h (0 Bft) 100,00 %
31.03.2020 00:56 4,4 C 3,3 C 2,8 C 90 % 1028,1 hPa 0,0 l/m 0 min 0 min 0 W/m 0,0 km/h (0 Bft) 100,00 %
31.03.2020 00:58 4,4 C 3,3 C 2,8 C 90 % 1028,1 hPa 0,0 l/m 0 min 0 min 0 W/m 6,4 km/h (2 Bft) 100,00 %
31.03.2020 01:00 4,4 C 3,3 C 2,8 C 90 % 1028,1 hPa 0,0 l/m 0 min 0 min 0 W/m 3,2 km/h (1 Bft) 100,00 %
31.03.2020 01:02 4,3 C 3,3 C 2,8 C 91 % 1028,1 hPa 0,0 l/m 0 min 0 min 0 W/m 0,0 km/h (0 Bft) 100,00 %
31.03.2020 01:04 4,3 C 3,3 C 2,8 C 91 % 1028,1 hPa 0,0 l/m 0 min 0 min 0 W/m 6,4 km/h (2 Bft) 100,00 %
31.03.2020 01:06 4,3 C 3,3 C 2,8 C 91 % 1028,1 hPa 0,0 l/m 0 min 0 min 0 W/m 0,0 km/h (0 Bft) 100,00 %
31.03.2020 01:08 4,3 C 3,3 C 2,8 C 91 % 1028,1 hPa 0,0 l/m 0 min 0 min 0 W/m 3,2 km/h (1 Bft) 100,00 %
31.03.2020 01:10 4,3 C 3,3 C 2,8 C 91 % 1028,1 hPa 0,0 l/m 0 min 0 min 0 W/m 3,2 km/h (1 Bft) 100,00 %
31.03.2020 01:12 4,3 C 3,3 C 2,8 C 91 % 1028,2 hPa 0,0 l/m 0 min 0 min 0 W/m 3,2 km/h (1 Bft) 100,00 %
31.03.2020 01:14 4,3 C 3,3 C 2,8 C 91 % 1028,2 hPa 0,0 l/m 0 min 0 min 0 W/m 9,7 km/h (2 Bft) 100,00 %
31.03.2020 01:16 4,3 C 3,3 C 2,8 C 91 % 1028,1 hPa 0,0 l/m 0 min 0 min 0 W/m 12,9 km/h (3 Bft) 100,00 %
31.03.2020 01:18 4,3 C 3,3 C 2,8 C 91 % 1028,1 hPa 0,0 l/m 0 min 0 min 0 W/m 0,0 km/h (0 Bft) 100,00 %
31.03.2020 01:20 4,3 C 3,3 C 2,8 C 91 % 1028,2 hPa 0,0 l/m 0 min 0 min 0 W/m 0,0 km/h (0 Bft) 100,00 %
31.03.2020 01:22 4,3 C 3,3 C 2,2 C 91 % 1028,2 hPa 0,0 l/m 0 min 0 min 0 W/m 0,0 km/h (0 Bft) 100,00 %
31.03.2020 01:24 4,2 C 2,8 C 2,2 C 91 % 1028,2 hPa 0,0 l/m 0 min 0 min 0 W/m 0,0 km/h (0 Bft) 100,00 %
31.03.2020 01:26 4,2 C 2,8 C 2,2 C 91 % 1028,2 hPa 0,0 l/m 0 min 0 min 0 W/m 0,0 km/h (0 Bft) 100,00 %
31.03.2020 01:28 4,2 C 2,8 C 2,2 C 91 % 1028,2 hPa 0,0 l/m 0 min 0 min 0 W/m 0,0 km/h (0 Bft) 100,00 %
31.03.2020 01:30 4,2 C 2,8 C 2,2 C 91 % 1028,2 hPa 0,0 l/m 0 min 0 min 0 W/m 6,4 km/h (2 Bft) 100,00 %
31.03.2020 01:32 4,2 C 2,8 C 2,2 C 91 % 1028,3 hPa 0,0 l/m 0 min 0 min 0 W/m 6,4 km/h (2 Bft) 97,83 %
31.03.2020 01:34 4,1 C 2,8 C 2,2 C 91 % 1028,3 hPa 0,0 l/m 0 min 0 min 0 W/m 0,0 km/h (0 Bft) 100,00 %
31.03.2020 01:36 4,1 C 2,8 C 2,2 C 92 % 1028,3 hPa 0,0 l/m 0 min 0 min 0 W/m 0,0 km/h (0 Bft) 97,87 %
31.03.2020 01:38 4,1 C 2,8 C 2,2 C 92 % 1028,4 hPa 0,0 l/m 0 min 0 min 0 W/m 0,0 km/h (0 Bft) 100,00 %
31.03.2020 01:40 4,1 C 2,8 C 2,2 C 92 % 1028,3 hPa 0,0 l/m 0 min 0 min 0 W/m 3,2 km/h (1 Bft) 100,00 %
31.03.2020 01:42 4,1 C 2,8 C 2,2 C 92 % 1028,3 hPa 0,0 l/m 0 min 0 min 0 W/m 0,0 km/h (0 Bft) 100,00 %
31.03.2020 01:44 4,0 C 2,8 C 2,2 C 92 % 1028,3 hPa 0,0 l/m 0 min 0 min 0 W/m 3,2 km/h (1 Bft) 100,00 %
31.03.2020 01:46 4,0 C 2,2 C 1,7 C 92 % 1028,3 hPa 0,0 l/m 0 min 0 min 0 W/m 0,0 km/h (0 Bft) 97,87 %
31.03.2020 01:48 3,9 C 2,2 C 1,7 C 91 % 1028,2 hPa 0,0 l/m 0 min 0 min 0 W/m 3,2 km/h (1 Bft) 100,00 %
31.03.2020 01:50 3,9 C 2,2 C 1,7 C 92 % 1028,2 hPa 0,0 l/m 0 min 0 min 0 W/m 6,4 km/h (2 Bft) 97,87 %
31.03.2020 01:52 3,9 C 2,2 C 1,7 C 92 % 1028,2 hPa 0,0 l/m 0 min 0 min 0 W/m 0,0 km/h (0 Bft) 100,00 %
31.03.2020 01:54 3,9 C 2,2 C 1,7 C 92 % 1028,2 hPa 0,0 l/m 0 min 0 min 0 W/m 6,4 km/h (2 Bft) 100,00 %
31.03.2020 01:56 3,8 C 2,2 C 1,7 C 92 % 1028,2 hPa 0,0 l/m 0 min 0 min 0 W/m 0,0 km/h (0 Bft) 95,74 %
31.03.2020 01:58 3,8 C 2,2 C 1,7 C 92 % 1028,1 hPa 0,0 l/m 0 min 0 min 0 W/m 0,0 km/h (0 Bft) 95,74 %
31.03.2020 02:00 3,8 C 2,2 C 1,7 C 92 % 1028,2 hPa 0,0 l/m 0 min 0 min 0 W/m 0,0 km/h (0 Bft) 95,74 %
31.03.2020 02:02 3,8 C 2,2 C 1,7 C 92 % 1028,2 hPa 0,0 l/m 0 min 0 min 0 W/m 0,0 km/h (0 Bft) 97,87 %
31.03.2020 02:04 3,7 C 2,2 C 1,7 C 92 % 1028,2 hPa 0,0 l/m 0 min 0 min 0 W/m 3,2 km/h (1 Bft) 97,87 %
31.03.2020 02:06 3,7 C 2,2 C 1,7 C 92 % 1028,2 hPa 0,0 l/m 0 min 0 min 0 W/m 0,0 km/h (0 Bft) 89,13 %
31.03.2020 02:08 3,7 C 2,2 C 1,7 C 92 % 1028,2 hPa 0,0 l/m 0 min 0 min 0 W/m 0,0 km/h (0 Bft) 95,74 %
31.03.2020 02:10 3,7 C 2,2 C 1,7 C 92 % 1028,2 hPa 0,0 l/m 0 min 0 min 0 W/m 0,0 km/h (0 Bft) 95,74 %
31.03.2020 02:12 3,6 C 2,2 C 1,7 C 92 % 1028,3 hPa 0,0 l/m 0 min 0 min 0 W/m 0,0 km/h (0 Bft) 95,74 %
31.03.2020 02:14 3,6 C 2,2 C 1,7 C 92 % 1028,3 hPa 0,0 l/m 0 min 0 min 0 W/m 0,0 km/h (0 Bft) 95,74 %
31.03.2020 02:16 3,6 C 2,2 C 1,7 C 92 % 1028,3 hPa 0,0 l/m 0 min 0 min 0 W/m 0,0 km/h (0 Bft) 95,74 %
31.03.2020 02:18 3,6 C 2,2 C 1,7 C 92 % 1028,3 hPa 0,0 l/m 0 min 0 min 0 W/m 0,0 km/h (0 Bft) 95,65 %
31.03.2020 02:20 3,5 C 2,2 C 1,7 C 92 % 1028,3 hPa 0,0 l/m 0 min 0 min 0 W/m 0,0 km/h (0 Bft) 97,87 %
31.03.2020 02:22 3,5 C 2,2 C 1,7 C 92 % 1028,3 hPa 0,0 l/m 0 min 0 min 0 W/m 6,4 km/h (2 Bft) 93,62 %
31.03.2020 02:24 3,5 C 2,8 C 1,7 C 92 % 1028,4 hPa 0,0 l/m 0 min 0 min 0 W/m 9,7 km/h (2 Bft) 95,74 %
31.03.2020 02:26 3,4 C 2,8 C 2,2 C 92 % 1028,4 hPa 0,0 l/m 0 min 0 min 0 W/m 0,0 km/h (0 Bft) 91,49 %
31.03.2020 02:28 3,4 C 2,8 C 2,2 C 92 % 1028,4 hPa 0,0 l/m 0 min 0 min 0 W/m 0,0 km/h (0 Bft) 95,74 %
31.03.2020 02:30 3,4 C 2,8 C 2,2 C 92 % 1028,4 hPa 0,0 l/m 0 min 0 min 0 W/m 0,0 km/h (0 Bft) 93,48 %
31.03.2020 02:32 3,4 C 2,8 C 2,2 C 93 % 1028,4 hPa 0,0 l/m 0 min 0 min 0 W/m 0,0 km/h (0 Bft) 95,74 %
31.03.2020 02:35 3,4 C 2,8 C 2,2 C 93 % 1028,4 hPa 0,0 l/m 0 min 0 min 0 W/m 0,0 km/h (0 Bft) 96,34 %
31.03.2020 02:36 3,4 C 2,8 C 2,2 C 93 % 1028,4 hPa 0,0 l/m 0 min 0 min 0 W/m 3,2 km/h (1 Bft) 100,00 %
31.03.2020 02:38 3,4 C 2,2 C 1,7 C 93 % 1028,5 hPa 0,0 l/m 0 min 0 min 0 W/m 9,7 km/h (2 Bft) 97,87 %
31.03.2020 02:40 3,4 C 2,2 C 1,7 C 93 % 1028,5 hPa 0,0 l/m 0 min 0 min 0 W/m 6,4 km/h (2 Bft) 93,62 %
31.03.2020 02:42 3,4 C 2,2 C 1,7 C 93 % 1028,5 hPa 0,0 l/m 0 min 0 min 0 W/m 0,0 km/h (0 Bft) 95,65 %
31.03.2020 02:44 3,4 C 2,2 C 1,7 C 93 % 1028,5 hPa 0,0 l/m 0 min 0 min 0 W/m 6,4 km/h (2 Bft) 97,87 %
31.03.2020 02:46 3,4 C 2,2 C 1,7 C 93 % 1028,5 hPa 0,0 l/m 0 min 0 min 0 W/m 3,2 km/h (1 Bft) 97,87 %
31.03.2020 02:52 3,3 C 2,2 C 1,7 C 93 % 1028,6 hPa 0,0 l/m 0 min 0 min 0 W/m 9,7 km/h (2 Bft) 100,00 %
31.03.2020 02:54 3,3 C 2,2 C 1,7 C 93 % 1028,5 hPa 0,0 l/m 0 min 0 min 0 W/m 0,0 km/h (0 Bft) 93,48 %
31.03.2020 02:56 3,3 C 2,2 C 1,7 C 93 % 1028,6 hPa 0,0 l/m 0 min 0 min 0 W/m 6,4 km/h (2 Bft) 93,62 %
31.03.2020 03:01 3,2 C 2,2 C 1,7 C 93 % 1028,6 hPa 0,0 l/m 0 min 0 min 0 W/m 6,4 km/h (2 Bft) 100,00 %
31.03.2020 03:02 3,2 C 2,2 C 1,7 C 93 % 1028,6 hPa 0,0 l/m 0 min 0 min 0 W/m 0,0 km/h (0 Bft) 100,00 %
31.03.2020 03:04 3,2 C 2,2 C 1,7 C 93 % 1028,6 hPa 0,0 l/m 0 min 0 min 0 W/m 0,0 km/h (0 Bft) 91,30 %
31.03.2020 03:06 3,1 C 2,2 C 1,7 C 93 % 1028,6 hPa 0,0 l/m 0 min 0 min 0 W/m 0,0 km/h (0 Bft) 100,00 %
31.03.2020 03:08 3,1 C 2,2 C 1,7 C 93 % 1028,6 hPa 0,0 l/m 0 min 0 min 0 W/m 3,2 km/h (1 Bft) 57,45 %
31.03.2020 03:10 3,1 C 2,2 C 1,7 C 93 % 1028,6 hPa 0,0 l/m 0 min 0 min 0 W/m 0,0 km/h (0 Bft) 100,00 %
31.03.2020 03:12 3,1 C 2,2 C 1,7 C 93 % 1028,7 hPa 0,0 l/m 0 min 0 min 0 W/m 0,0 km/h (0 Bft) 97,87 %
31.03.2020 03:14 3,1 C 2,2 C 1,7 C 93 % 1028,6 hPa 0,0 l/m 0 min 0 min 0 W/m 0,0 km/h (0 Bft) 100,00 %
31.03.2020 03:16 3,1 C 2,2 C 1,7 C 93 % 1028,6 hPa 0,0 l/m 0 min 0 min 0 W/m 0,0 km/h (0 Bft) 100,00 %
31.03.2020 03:18 3,1 C 2,2 C 1,7 C 93 % 1028,7 hPa 0,0 l/m 0 min 0 min 0 W/m 0,0 km/h (0 Bft) 100,00 %
31.03.2020 03:20 3,0 C 1,7 C 1,7 C 93 % 1028,7 hPa 0,0 l/m 0 min 0 min 0 W/m 0,0 km/h (0 Bft) 100,00 %
31.03.2020 03:22 3,0 C 1,7 C 1,1 C 93 % 1028,7 hPa 0,0 l/m 0 min 0 min 0 W/m 0,0 km/h (0 Bft) 97,87 %
31.03.2020 03:24 2,9 C 1,7 C 1,1 C 93 % 1028,8 hPa 0,0 l/m 0 min 0 min 0 W/m 0,0 km/h (0 Bft) 100,00 %
31.03.2020 03:26 2,9 C 1,7 C 1,1 C 93 % 1028,7 hPa 0,0 l/m 0 min 0 min 0 W/m 3,2 km/h (1 Bft) 100,00 %
31.03.2020 03:28 2,9 C 1,7 C 1,1 C 93 % 1028,7 hPa 0,0 l/m 0 min 0 min 0 W/m 3,2 km/h (1 Bft) 95,65 %
31.03.2020 03:30 2,9 C 1,7 C 1,1 C 93 % 1028,8 hPa 0,0 l/m 0 min 0 min 0 W/m 6,4 km/h (2 Bft) 100,00 %
31.03.2020 03:32 2,8 C 1,7 C 1,1 C 93 % 1028,8 hPa 0,0 l/m 0 min 0 min 0 W/m 0,0 km/h (0 Bft) 100,00 %
31.03.2020 03:34 2,8 C 1,7 C 1,1 C 93 % 1028,8 hPa 0,0 l/m 0 min 0 min 0 W/m 0,0 km/h (0 Bft) 100,00 %
31.03.2020 03:36 2,8 C 1,7 C 1,1 C 93 % 1028,8 hPa 0,0 l/m 0 min 0 min 0 W/m 0,0 km/h (0 Bft) 100,00 %
31.03.2020 03:38 2,8 C 1,7 C 1,1 C 93 % 1028,7 hPa 0,0 l/m 0 min 0 min 0 W/m 0,0 km/h (0 Bft) 100,00 %
31.03.2020 03:40 2,7 C 1,7 C 1,1 C 93 % 1028,7 hPa 0,0 l/m 0 min 0 min 0 W/m 0,0 km/h (0 Bft) 100,00 %
31.03.2020 03:42 2,7 C 1,7 C 1,1 C 93 % 1028,6 hPa 0,0 l/m 0 min 0 min 0 W/m 3,2 km/h (1 Bft) 97,87 %
31.03.2020 03:44 2,7 C 1,7 C 1,1 C 93 % 1028,6 hPa 0,0 l/m 0 min 0 min 0 W/m 0,0 km/h (0 Bft) 97,87 %
31.03.2020 03:46 2,6 C 1,7 C 1,1 C 93 % 1028,6 hPa 0,0 l/m 0 min 0 min 0 W/m 0,0 km/h (0 Bft) 100,00 %
31.03.2020 03:48 2,6 C 1,7 C 1,1 C 93 % 1028,6 hPa 0,0 l/m 0 min 0 min 0 W/m 0,0 km/h (0 Bft) 100,00 %
31.03.2020 03:50 2,6 C 1,7 C 1,1 C 93 % 1028,6 hPa 0,0 l/m 0 min 0 min 0 W/m 3,2 km/h (1 Bft) 97,87 %
31.03.2020 03:52 2,6 C 1,7 C 1,1 C 93 % 1028,7 hPa 0,0 l/m 0 min 0 min 0 W/m 3,2 km/h (1 Bft) 100,00 %
31.03.2020 03:54 2,6 C 1,7 C 1,1 C 93 % 1028,6 hPa 0,0 l/m 0 min 0 min 0 W/m 0,0 km/h (0 Bft) 100,00 %
31.03.2020 03:56 2,5 C 1,7 C 1,1 C 93 % 1028,6 hPa 0,0 l/m 0 min 0 min 0 W/m 6,4 km/h (2 Bft) 100,00 %
31.03.2020 03:58 2,5 C 1,7 C 1,1 C 93 % 1028,6 hPa 0,0 l/m 0 min 0 min 0 W/m 0,0 km/h (0 Bft) 95,74 %
31.03.2020 04:00 2,5 C 1,7 C 1,1 C 94 % 1028,6 hPa 0,0 l/m 0 min 0 min 0 W/m 0,0 km/h (0 Bft) 97,87 %
31.03.2020 04:02 2,4 C 1,7 C 1,1 C 94 % 1028,6 hPa 0,0 l/m 0 min 0 min 0 W/m 0,0 km/h (0 Bft) 100,00 %
31.03.2020 04:04 2,4 C 1,7 C 1,1 C 94 % 1028,6 hPa 0,0 l/m 0 min 0 min 0 W/m 0,0 km/h (0 Bft) 97,83 %
31.03.2020 04:06 2,4 C 1,1 C 1,1 C 94 % 1028,6 hPa 0,0 l/m 0 min 0 min 0 W/m 3,2 km/h (1 Bft) 100,00 %
31.03.2020 04:08 2,4 C 1,1 C 1,1 C 94 % 1028,7 hPa 0,0 l/m 0 min 0 min 0 W/m 0,0 km/h (0 Bft) 97,87 %
31.03.2020 04:10 2,4 C 1,1 C 0,6 C 94 % 1028,7 hPa 0,0 l/m 0 min 0 min 0 W/m 0,0 km/h (0 Bft) 93,62 %
31.03.2020 04:12 2,4 C 1,1 C 0,6 C 94 % 1028,7 hPa 0,0 l/m 0 min 0 min 0 W/m 0,0 km/h (0 Bft) 95,74 %
31.03.2020 04:14 2,3 C 1,1 C 0,6 C 94 % 1028,7 hPa 0,0 l/m 0 min 0 min 0 W/m 3,2 km/h (1 Bft) 97,83 %
31.03.2020 04:16 2,3 C 1,1 C 0,6 C 93 % 1028,7 hPa 0,0 l/m 0 min 0 min 0 W/m 3,2 km/h (1 Bft) 97,87 %
31.03.2020 04:18 2,3 C 1,1 C 0,6 C 93 % 1028,7 hPa 0,0 l/m 0 min 0 min 0 W/m 0,0 km/h (0 Bft) 93,62 %
31.03.2020 04:20 2,3 C 1,1 C 0,6 C 93 % 1028,7 hPa 0,0 l/m 0 min 0 min 0 W/m 0,0 km/h (0 Bft) 95,74 %
31.03.2020 04:22 2,3 C 1,1 C 0,6 C 93 % 1028,8 hPa 0,0 l/m 0 min 0 min 0 W/m 0,0 km/h (0 Bft) 95,74 %
31.03.2020 04:24 2,3 C 1,1 C 0,6 C 93 % 1028,8 hPa 0,0 l/m 0 min 0 min 0 W/m 0,0 km/h (0 Bft) 95,74 %
31.03.2020 04:26 2,2 C 1,1 C 0,6 C 93 % 1028,8 hPa 0,0 l/m 0 min 0 min 0 W/m 3,2 km/h (1 Bft) 91,30 %
31.03.2020 04:28 2,2 C 1,1 C 0,6 C 93 % 1028,8 hPa 0,0 l/m 0 min 0 min 0 W/m 0,0 km/h (0 Bft) 95,74 %
31.03.2020 04:30 2,2 C 1,1 C 0,6 C 94 % 1028,8 hPa 0,0 l/m 0 min 0 min 0 W/m 0,0 km/h (0 Bft) 95,74 %
31.03.2020 04:32 2,2 C 1,1 C 0,6 C 94 % 1028,8 hPa 0,0 l/m 0 min 0 min 0 W/m 0,0 km/h (0 Bft) 95,74 %
31.03.2020 04:34 2,2 C 1,1 C 0,6 C 94 % 1028,8 hPa 0,0 l/m 0 min 0 min 0 W/m 0,0 km/h (0 Bft) 95,74 %
31.03.2020 04:36 2,1 C 1,1 C 0,6 C 94 % 1028,8 hPa 0,0 l/m 0 min 0 min 0 W/m 0,0 km/h (0 Bft) 95,74 %
31.03.2020 04:38 2,1 C 1,1 C 0,6 C 94 % 1028,8 hPa 0,0 l/m 0 min 0 min 0 W/m 0,0 km/h (0 Bft) 91,30 %
31.03.2020 04:40 2,1 C 1,1 C 0,6 C 94 % 1028,9 hPa 0,0 l/m 0 min 0 min 0 W/m 0,0 km/h (0 Bft) 93,62 %
31.03.2020 04:42 2,1 C 0,6 C 0,6 C 94 % 1028,9 hPa 0,0 l/m 0 min 0 min 0 W/m 0,0 km/h (0 Bft) 97,87 %
31.03.2020 04:44 2,1 C 0,6 C 0,6 C 94 % 1028,9 hPa 0,0 l/m 0 min 0 min 0 W/m 0,0 km/h (0 Bft) 97,87 %
31.03.2020 04:46 2,1 C 0,6 C 0,6 C 94 % 1028,9 hPa 0,0 l/m 0 min 0 min 0 W/m 0,0 km/h (0 Bft) 93,62 %
31.03.2020 04:48 2,0 C 0,6 C 0,6 C 94 % 1028,9 hPa 0,0 l/m 0 min 0 min 0 W/m 0,0 km/h (0 Bft) 97,87 %
31.03.2020 04:50 2,0 C 0,6 C 0,0 C 94 % 1028,9 hPa 0,0 l/m 0 min 0 min 0 W/m 0,0 km/h (0 Bft) 97,83 %
31.03.2020 04:52 1,9 C 0,6 C 0,0 C 94 % 1028,9 hPa 0,0 l/m 0 min 0 min 0 W/m 0,0 km/h (0 Bft) 97,87 %
31.03.2020 04:54 1,9 C 0,6 C 0,0 C 94 % 1028,9 hPa 0,0 l/m 0 min 0 min 0 W/m 0,0 km/h (0 Bft) 97,87 %
31.03.2020 04:56 1,9 C 0,6 C 0,0 C 94 % 1028,9 hPa 0,0 l/m 0 min 0 min 0 W/m 0,0 km/h (0 Bft) 95,74 %
31.03.2020 04:58 1,9 C 0,6 C 0,0 C 94 % 1028,9 hPa 0,0 l/m 0 min 0 min 0 W/m 0,0 km/h (0 Bft) 97,87 %
31.03.2020 05:00 1,9 C 0,6 C 0,0 C 94 % 1028,9 hPa 0,0 l/m 0 min 0 min 0 W/m 0,0 km/h (0 Bft) 97,87 %
31.03.2020 05:02 1,8 C 0,6 C 0,0 C 94 % 1028,8 hPa 0,0 l/m 0 min 0 min 0 W/m 0,0 km/h (0 Bft) 95,65 %
31.03.2020 05:04 1,8 C 0,6 C 0,0 C 94 % 1028,8 hPa 0,0 l/m 0 min 0 min 0 W/m 0,0 km/h (0 Bft) 97,87 %
31.03.2020 05:06 1,8 C 0,6 C 0,0 C 94 % 1028,8 hPa 0,0 l/m 0 min 0 min 0 W/m 0,0 km/h (0 Bft) 97,87 %
31.03.2020 05:08 1,8 C 0,6 C 0,0 C 94 % 1028,8 hPa 0,0 l/m 0 min 0 min 0 W/m 0,0 km/h (0 Bft) 97,87 %
31.03.2020 05:10 1,8 C 0,6 C 0,0 C 94 % 1028,9 hPa 0,0 l/m 0 min 0 min 0 W/m 0,0 km/h (0 Bft) 97,87 %
31.03.2020 05:12 1,7 C 0,6 C 0,0 C 94 % 1028,9 hPa 0,0 l/m 0 min 0 min 0 W/m 0,0 km/h (0 Bft) 97,83 %
31.03.2020 05:14 1,7 C 0,6 C 0,0 C 94 % 1028,9 hPa 0,0 l/m 0 min 0 min 0 W/m 0,0 km/h (0 Bft) 95,74 %
31.03.2020 05:16 1,7 C 0,6 C 0,0 C 94 % 1028,9 hPa 0,0 l/m 0 min 0 min 0 W/m 0,0 km/h (0 Bft) 93,62 %
31.03.2020 05:18 1,7 C 0,6 C 0,0 C 94 % 1028,9 hPa 0,0 l/m 0 min 0 min 0 W/m 0,0 km/h (0 Bft) 93,62 %
31.03.2020 05:20 1,7 C 0,6 C 0,0 C 94 % 1029,0 hPa 0,0 l/m 0 min 0 min 0 W/m 0,0 km/h (0 Bft) 93,62 %
31.03.2020 05:22 1,6 C 0,6 C 0,0 C 94 % 1029,0 hPa 0,0 l/m 0 min 0 min 0 W/m 0,0 km/h (0 Bft) 95,74 %
31.03.2020 05:24 1,6 C 0,6 C 0,0 C 94 % 1029,0 hPa 0,0 l/m 0 min 0 min 0 W/m 0,0 km/h (0 Bft) 95,65 %
31.03.2020 05:26 1,6 C 0,6 C 0,0 C 94 % 1029,0 hPa 0,0 l/m 0 min 0 min 0 W/m 0,0 km/h (0 Bft) 91,49 %
31.03.2020 05:28 1,6 C 0,0 C 0,0 C 94 % 1028,9 hPa 0,2 l/m 0 min 0 min 0 W/m 0,0 km/h (0 Bft) 93,62 %
31.03.2020 05:30 1,6 C 0,0 C -0,6 C 94 % 1029,0 hPa 0,0 l/m 0 min 0 min 0 W/m 0,0 km/h (0 Bft) 95,74 %
31.03.2020 05:32 1,6 C 0,0 C -0,6 C 94 % 1029,1 hPa 0,0 l/m 0 min 0 min 0 W/m 0,0 km/h (0 Bft) 91,49 %
31.03.2020 05:34 1,5 C 0,0 C -0,6 C 94 % 1029,1 hPa 0,0 l/m 0 min 0 min 0 W/m 0,0 km/h (0 Bft) 59,57 %
31.03.2020 05:36 1,5 C 0,0 C -0,6 C 94 % 1029,2 hPa 0,0 l/m 0 min 0 min 0 W/m 0,0 km/h (0 Bft) 97,83 %
31.03.2020 05:38 1,5 C 0,0 C 0,0 C 94 % 1029,1 hPa 0,0 l/m 0 min 0 min 0 W/m 0,0 km/h (0 Bft) 97,87 %
31.03.2020 05:40 1,4 C 0,6 C 0,0 C 94 % 1029,1 hPa 0,0 l/m 0 min 0 min 0 W/m 0,0 km/h (0 Bft) 97,87 %
31.03.2020 05:42 1,4 C 0,6 C 0,0 C 94 % 1029,2 hPa 0,0 l/m 0 min 0 min 0 W/m 0,0 km/h (0 Bft) 95,74 %
31.03.2020 05:44 1,4 C 0,6 C 0,0 C 94 % 1029,2 hPa 0,0 l/m 0 min 0 min 0 W/m 0,0 km/h (0 Bft) 97,87 %
31.03.2020 05:46 1,4 C 0,6 C 0,0 C 94 % 1029,3 hPa 0,0 l/m 0 min 0 min 0 W/m 0,0 km/h (0 Bft) 95,74 %
31.03.2020 05:48 1,4 C 0,6 C 0,0 C 94 % 1029,2 hPa 0,0 l/m 0 min 0 min 0 W/m 0,0 km/h (0 Bft) 97,83 %
31.03.2020 05:50 1,4 C 0,6 C 0,6 C 94 % 1029,3 hPa 0,0 l/m 0 min 0 min 0 W/m 0,0 km/h (0 Bft) 95,74 %
31.03.2020 05:52 1,4 C 0,6 C 0,6 C 94 % 1029,3 hPa 0,0 l/m 0 min 0 min 0 W/m 0,0 km/h (0 Bft) 95,74 %
31.03.2020 05:54 1,4 C 1,1 C 0,6 C 94 % 1029,3 hPa 0,0 l/m 0 min 0 min 0 W/m 0,0 km/h (0 Bft) 97,87 %
31.03.2020 05:56 1,4 C 1,1 C 0,6 C 94 % 1029,3 hPa 0,0 l/m 0 min 0 min 0 W/m 0,0 km/h (0 Bft) 95,74 %
31.03.2020 05:58 1,4 C 1,1 C 0,6 C 94 % 1029,4 hPa 0,0 l/m 0 min 0 min 0 W/m 0,0 km/h (0 Bft) 95,74 %
31.03.2020 06:00 1,4 C 1,1 C 0,6 C 94 % 1029,4 hPa 0,0 l/m 0 min 0 min 0 W/m 0,0 km/h (0 Bft) 97,83 %
31.03.2020 06:02 1,4 C 1,1 C 0,6 C 94 % 1029,4 hPa 0,0 l/m 0 min 0 min 0 W/m 0,0 km/h (0 Bft) 97,87 %
31.03.2020 06:04 1,4 C 1,1 C 0,6 C 94 % 1029,4 hPa 0,0 l/m 0 min 0 min 0 W/m 0,0 km/h (0 Bft) 97,87 %
31.03.2020 06:08 1,5 C 1,1 C 0,6 C 94 % 1029,4 hPa 0,0 l/m 0 min 0 min 0 W/m 0,0 km/h (0 Bft) 97,87 %
31.03.2020 06:10 1,5 C 1,1 C 0,6 C 94 % 1029,5 hPa 0,0 l/m 0 min 0 min 0 W/m 0,0 km/h (0 Bft) 100,00 %
31.03.2020 06:12 1,6 C 1,1 C 0,6 C 94 % 1029,4 hPa 0,0 l/m 0 min 0 min 0 W/m 0,0 km/h (0 Bft) 100,00 %
31.03.2020 06:14 1,6 C 1,1 C 1,1 C 95 % 1029,4 hPa 0,0 l/m 0 min 0 min 0 W/m 3,2 km/h (1 Bft) 95,74 %
31.03.2020 06:16 1,6 C 1,1 C 1,1 C 95 % 1029,4 hPa 0,0 l/m 0 min 0 min 0 W/m 0,0 km/h (0 Bft) 95,74 %
31.03.2020 06:18 1,6 C 1,1 C 1,1 C 95 % 1029,4 hPa 0,0 l/m 0 min 0 min 0 W/m 3,2 km/h (1 Bft) 97,87 %
31.03.2020 06:20 1,7 C 1,1 C 1,1 C 95 % 1029,4 hPa 0,0 l/m 0 min 0 min 0 W/m 6,4 km/h (2 Bft) 52,27 %
31.03.2020 06:22 1,7 C 1,1 C 1,1 C 95 % 1029,5 hPa 0,0 l/m 0 min 0 min 0 W/m 3,2 km/h (1 Bft) 97,83 %
31.03.2020 06:24 1,7 C 1,1 C 1,1 C 95 % 1029,5 hPa 0,0 l/m 0 min 0 min 0 W/m 6,4 km/h (2 Bft) 95,74 %
31.03.2020 06:26 1,8 C 1,1 C 1,1 C 95 % 1029,5 hPa 0,0 l/m 0 min 0 min 0 W/m 12,9 km/h (3 Bft) 97,87 %
31.03.2020 06:28 1,8 C 1,1 C 1,1 C 95 % 1029,4 hPa 0,0 l/m 0 min 0 min 0 W/m 0,0 km/h (0 Bft) 97,87 %
31.03.2020 06:30 1,8 C 1,1 C 1,1 C 95 % 1029,4 hPa 0,0 l/m 0 min 0 min 0 W/m 3,2 km/h (1 Bft) 97,87 %
31.03.2020 06:32 1,8 C 1,1 C 1,1 C 95 % 1029,4 hPa 0,0 l/m 0 min 0 min 0 W/m 3,2 km/h (1 Bft) 97,87 %
31.03.2020 06:34 1,8 C 1,1 C 1,1 C 95 % 1029,4 hPa 0,0 l/m 0 min 0 min 0 W/m 0,0 km/h (0 Bft) 97,83 %
31.03.2020 06:36 1,8 C 1,1 C 1,1 C 95 % 1029,5 hPa 0,0 l/m 0 min 0 min 0 W/m 3,2 km/h (1 Bft) 97,87 %
31.03.2020 06:38 1,8 C 1,1 C 1,1 C 95 % 1029,5 hPa 0,0 l/m 0 min 0 min 0 W/m 0,0 km/h (0 Bft) 97,87 %
31.03.2020 06:40 1,8 C 1,1 C 1,1 C 95 % 1029,5 hPa 0,0 l/m 0 min 0 min 0 W/m 0,0 km/h (0 Bft) 97,87 %
31.03.2020 06:42 1,8 C 1,1 C 1,1 C 95 % 1029,5 hPa 0,0 l/m 0 min 0 min 0 W/m 0,0 km/h (0 Bft) 95,74 %
31.03.2020 06:44 1,8 C 1,1 C 1,1 C 95 % 1029,6 hPa 0,0 l/m 0 min 0 min 0 W/m 3,2 km/h (1 Bft) 97,87 %
31.03.2020 06:46 1,8 C 1,1 C 1,1 C 95 % 1029,6 hPa 0,0 l/m 0 min 0 min 0 W/m 9,7 km/h (2 Bft) 97,83 %
31.03.2020 06:48 1,8 C 1,1 C 1,1 C 95 % 1029,6 hPa 0,0 l/m 0 min 0 min 0 W/m 6,4 km/h (2 Bft) 97,87 %
31.03.2020 06:50 1,8 C 1,1 C 1,1 C 95 % 1029,6 hPa 0,0 l/m 0 min 0 min 0 W/m 3,2 km/h (1 Bft) 97,87 %
31.03.2020 06:52 1,8 C 1,1 C 1,1 C 95 % 1029,7 hPa 0,0 l/m 0 min 0 min 0 W/m 0,0 km/h (0 Bft) 97,87 %
31.03.2020 06:54 1,8 C 1,1 C 1,1 C 95 % 1029,7 hPa 0,0 l/m 0 min 0 min 0 W/m 0,0 km/h (0 Bft) 100,00 %
31.03.2020 06:56 1,8 C 1,1 C 1,1 C 95 % 1029,7 hPa 0,0 l/m 0 min 0 min 0 W/m 0,0 km/h (0 Bft) 100,00 %
31.03.2020 06:58 1,8 C 1,1 C 1,1 C 95 % 1029,8 hPa 0,0 l/m 0 min 0 min 0 W/m 0,0 km/h (0 Bft) 100,00 %
31.03.2020 07:00 1,9 C 1,1 C 1,1 C 95 % 1029,8 hPa 0,0 l/m 0 min 0 min 0 W/m 0,0 km/h (0 Bft) 100,00 %
31.03.2020 07:02 1,9 C 1,1 C 1,1 C 95 % 1029,8 hPa 0,0 l/m 0 min 0 min 0 W/m 0,0 km/h (0 Bft) 100,00 %
31.03.2020 07:04 1,9 C 1,1 C 1,1 C 95 % 1029,8 hPa 0,0 l/m 0 min 0 min 0 W/m 0,0 km/h (0 Bft) 100,00 %
31.03.2020 07:06 1,9 C 1,1 C 1,1 C 95 % 1029,8 hPa 0,0 l/m 0 min 0 min 0 W/m 0,0 km/h (0 Bft) 100,00 %
31.03.2020 07:08 1,9 C 1,1 C 1,1 C 95 % 1029,8 hPa 0,0 l/m 0 min 0 min 0 W/m 3,2 km/h (1 Bft) 100,00 %
31.03.2020 07:10 1,9 C 1,1 C 1,1 C 95 % 1029,9 hPa 0,0 l/m 0 min 0 min 0 W/m 0,0 km/h (0 Bft) 55,56 %
31.03.2020 07:12 1,9 C 1,1 C 1,1 C 95 % 1029,9 hPa 0,0 l/m 0 min 0 min 0 W/m 0,0 km/h (0 Bft) 100,00 %
31.03.2020 07:14 1,9 C 1,1 C 1,1 C 95 % 1030,0 hPa 0,0 l/m 0 min 0 min 0 W/m 3,2 km/h (1 Bft) 100,00 %
31.03.2020 07:16 1,9 C 1,1 C 1,1 C 95 % 1030,0 hPa 0,0 l/m 0 min 0 min 0 W/m 0,0 km/h (0 Bft) 97,87 %
31.03.2020 07:18 1,9 C 1,1 C 1,1 C 95 % 1030,1 hPa 0,0 l/m 0 min 0 min 4 W/m 0,0 km/h (0 Bft) 100,00 %
31.03.2020 07:20 1,9 C 1,1 C 1,1 C 95 % 1030,1 hPa 0,0 l/m 0 min 0 min 5 W/m 3,2 km/h (1 Bft) 100,00 %
31.03.2020 07:22 1,9 C 1,1 C 1,1 C 95 % 1030,1 hPa 0,0 l/m 0 min 0 min 7 W/m 3,2 km/h (1 Bft) 100,00 %
31.03.2020 07:24 1,9 C 1,1 C 1,1 C 95 % 1030,2 hPa 0,0 l/m 0 min 0 min 7 W/m 0,0 km/h (0 Bft) 100,00 %
31.03.2020 07:26 1,9 C 1,1 C 1,1 C 95 % 1030,2 hPa 0,0 l/m 0 min 0 min 8 W/m 3,2 km/h (1 Bft) 100,00 %
31.03.2020 07:28 1,9 C 1,7 C 1,1 C 95 % 1030,1 hPa 0,0 l/m 0 min 0 min 9 W/m 3,2 km/h (1 Bft) 97,87 %
31.03.2020 07:30 1,8 C 1,7 C 1,1 C 95 % 1030,2 hPa 0,0 l/m 0 min 0 min 9 W/m 0,0 km/h (0 Bft) 100,00 %
31.03.2020 07:32 1,9 C 1,7 C 1,1 C 95 % 1030,2 hPa 0,0 l/m 0 min 0 min 11 W/m 3,2 km/h (1 Bft) 100,00 %
31.03.2020 07:34 1,9 C 1,7 C 1,1 C 95 % 1030,2 hPa 0,0 l/m 0 min 0 min 11 W/m 3,2 km/h (1 Bft) 100,00 %
31.03.2020 07:36 1,9 C 1,7 C 1,1 C 95 % 1030,1 hPa 0,0 l/m 0 min 0 min 14 W/m 3,2 km/h (1 Bft) 95,74 %
31.03.2020 07:38 1,9 C 1,7 C 1,1 C 95 % 1030,2 hPa 0,0 l/m 0 min 0 min 14 W/m 3,2 km/h (1 Bft) 97,87 %
31.03.2020 07:40 1,9 C 1,7 C 1,1 C 95 % 1030,2 hPa 0,0 l/m 0 min 0 min 16 W/m 0,0 km/h (0 Bft) 95,74 %
31.03.2020 07:42 1,9 C 1,7 C 1,1 C 95 % 1030,2 hPa 0,0 l/m 0 min 0 min 17 W/m 3,2 km/h (1 Bft) 100,00 %
31.03.2020 07:44 1,9 C 1,7 C 1,1 C 95 % 1030,3 hPa 0,0 l/m 0 min 0 min 20 W/m 0,0 km/h (0 Bft) 100,00 %
31.03.2020 07:46 1,9 C 1,7 C 1,1 C 95 % 1030,3 hPa 0,0 l/m 0 min 0 min 19 W/m 6,4 km/h (2 Bft) 100,00 %
31.03.2020 07:48 1,9 C 1,7 C 1,1 C 95 % 1030,3 hPa 0,0 l/m 0 min 0 min 18 W/m 0,0 km/h (0 Bft) 100,00 %
31.03.2020 07:50 1,9 C 1,7 C 1,7 C 95 % 1030,4 hPa 0,0 l/m 0 min 0 min 19 W/m 3,2 km/h (1 Bft) 97,87 %
31.03.2020 07:52 1,9 C 1,7 C 1,7 C 95 % 1030,4 hPa 0,0 l/m 0 min 0 min 22 W/m 0,0 km/h (0 Bft) 100,00 %
31.03.2020 07:54 1,9 C 1,7 C 1,7 C 95 % 1030,4 hPa 0,0 l/m 0 min 0 min 24 W/m 3,2 km/h (1 Bft) 100,00 %
31.03.2020 07:56 2,0 C 1,7 C 1,7 C 95 % 1030,4 hPa 0,0 l/m 0 min 0 min 28 W/m 3,2 km/h (1 Bft) 95,65 %
31.03.2020 07:58 2,0 C 1,7 C 1,7 C 95 % 1030,4 hPa 0,0 l/m 0 min 0 min 26 W/m 0,0 km/h (0 Bft) 100,00 %
31.03.2020 08:00 2,0 C 1,7 C 1,7 C 95 % 1030,4 hPa 0,0 l/m 0 min 0 min 26 W/m 3,2 km/h (1 Bft) 100,00 %
31.03.2020 08:02 2,1 C 1,7 C 1,7 C 95 % 1030,4 hPa 0,0 l/m 0 min 0 min 26 W/m 3,2 km/h (1 Bft) 97,87 %
31.03.2020 08:04 2,1 C 1,7 C 1,7 C 95 % 1030,4 hPa 0,0 l/m 0 min 0 min 27 W/m 0,0 km/h (0 Bft) 95,74 %
31.03.2020 08:06 2,1 C 2,2 C 1,7 C 95 % 1030,5 hPa 0,0 l/m 0 min 0 min 28 W/m 3,2 km/h (1 Bft) 97,87 %
31.03.2020 08:08 2,1 C 2,2 C 1,7 C 95 % 1030,5 hPa 0,0 l/m 0 min 0 min 29 W/m 0,0 km/h (0 Bft) 95,65 %
31.03.2020 08:10 2,1 C 2,2 C 1,7 C 95 % 1030,6 hPa 0,0 l/m 0 min 0 min 31 W/m 0,0 km/h (0 Bft) 95,74 %
31.03.2020 08:12 2,1 C 2,2 C 1,7 C 95 % 1030,5 hPa 0,0 l/m 0 min 0 min 30 W/m 3,2 km/h (1 Bft) 95,74 %
31.03.2020 08:14 2,1 C 2,2 C 1,7 C 95 % 1030,6 hPa 0,0 l/m 0 min 0 min 31 W/m 3,2 km/h (1 Bft) 95,74 %
31.03.2020 08:16 2,1 C 2,2 C 1,7 C 95 % 1030,6 hPa 0,0 l/m 0 min 0 min 32 W/m 6,4 km/h (2 Bft) 97,87 %
31.03.2020 08:18 2,2 C 2,2 C 1,7 C 95 % 1030,7 hPa 0,0 l/m 0 min 0 min 34 W/m 9,7 km/h (2 Bft) 97,83 %
31.03.2020 08:20 2,2 C 2,2 C 1,7 C 95 % 1030,7 hPa 0,0 l/m 0 min 0 min 36 W/m 9,7 km/h (2 Bft) 97,87 %
31.03.2020 08:22 2,2 C 2,2 C 1,7 C 95 % 1030,7 hPa 0,0 l/m 0 min 0 min 43 W/m 3,2 km/h (1 Bft) 93,62 %
31.03.2020 08:24 2,2 C 2,2 C 1,7 C 95 % 1030,7 hPa 0,0 l/m 0 min 0 min 49 W/m 6,4 km/h (2 Bft) 95,74 %
31.03.2020 08:26 2,2 C 2,2 C 1,7 C 95 % 1030,7 hPa 0,0 l/m 0 min 0 min 49 W/m 9,7 km/h (2 Bft) 95,74 %
31.03.2020 08:28 2,2 C 2,2 C 2,2 C 95 % 1030,7 hPa 0,0 l/m 0 min 0 min 50 W/m 0,0 km/h (0 Bft) 89,36 %
31.03.2020 08:30 2,3 C 2,2 C 2,2 C 95 % 1030,7 hPa 0,0 l/m 0 min 0 min 54 W/m 3,2 km/h (1 Bft) 91,30 %
31.03.2020 08:32 2,3 C 2,8 C 2,2 C 95 % 1030,7 hPa 0,0 l/m 0 min 0 min 58 W/m 3,2 km/h (1 Bft) 93,62 %
31.03.2020 08:34 2,3 C 2,8 C 2,2 C 95 % 1030,7 hPa 0,0 l/m 0 min 0 min 72 W/m 0,0 km/h (0 Bft) 93,62 %
31.03.2020 08:36 2,3 C 2,8 C 2,2 C 95 % 1030,7 hPa 0,0 l/m 0 min 0 min 85 W/m 3,2 km/h (1 Bft) 93,62 %
31.03.2020 08:38 2,4 C 3,3 C 2,8 C 95 % 1030,8 hPa 0,0 l/m 0 min 0 min 91 W/m 3,2 km/h (1 Bft) 93,62 %
31.03.2020 08:40 2,4 C 3,3 C 2,8 C 95 % 1030,7 hPa 0,0 l/m 0 min 0 min 98 W/m 3,2 km/h (1 Bft) 91,49 %
31.03.2020 08:42 2,4 C 3,3 C 2,8 C 95 % 1030,7 hPa 0,0 l/m 0 min 0 min 97 W/m 3,2 km/h (1 Bft) 93,48 %
31.03.2020 08:44 2,5 C 3,3 C 2,8 C 95 % 1030,7 hPa 0,0 l/m 0 min 0 min 101 W/m 0,0 km/h (0 Bft) 91,49 %
31.03.2020 08:46 2,6 C 3,3 C 2,8 C 95 % 1030,8 hPa 0,0 l/m 0 min 0 min 98 W/m 3,2 km/h (1 Bft) 93,62 %
31.03.2020 08:48 2,6 C 3,9 C 3,3 C 95 % 1030,8 hPa 0,0 l/m 0 min 0 min 121 W/m 3,2 km/h (1 Bft) 93,62 %
31.03.2020 08:50 2,6 C 3,9 C 3,3 C 95 % 1031,0 hPa 0,0 l/m 0 min 0 min 117 W/m 3,2 km/h (1 Bft) 91,49 %
31.03.2020 08:52 2,7 C 3,9 C 3,3 C 95 % 1030,9 hPa 0,0 l/m 0 min 0 min 112 W/m 3,2 km/h (1 Bft) 95,74 %
31.03.2020 08:54 2,7 C 3,9 C 3,3 C 95 % 1031,0 hPa 0,0 l/m 0 min 0 min 103 W/m 3,2 km/h (1 Bft) 51,16 %
31.03.2020 08:56 2,8 C 3,3 C 2,8 C 95 % 1031,0 hPa 0,0 l/m 0 min 0 min 84 W/m 3,2 km/h (1 Bft) 93,62 %
31.03.2020 08:58 2,8 C 3,3 C 2,8 C 94 % 1031,0 hPa 0,0 l/m 0 min 0 min 78 W/m 3,2 km/h (1 Bft) 93,62 %
31.03.2020 09:00 2,8 C 3,3 C 2,2 C 94 % 1031,0 hPa 0,0 l/m 0 min 0 min 70 W/m 6,4 km/h (2 Bft) 95,74 %
31.03.2020 09:02 2,7 C 2,8 C 2,2 C 94 % 1031,0 hPa 0,0 l/m 0 min 0 min 61 W/m 9,7 km/h (2 Bft) 91,49 %
31.03.2020 09:04 2,7 C 2,8 C 2,2 C 94 % 1031,0 hPa 0,0 l/m 0 min 0 min 58 W/m 9,7 km/h (2 Bft) 95,65 %
31.03.2020 09:06 2,7 C 2,8 C 2,2 C 94 % 1031,0 hPa 0,0 l/m 0 min 0 min 59 W/m 3,2 km/h (1 Bft) 95,74 %
31.03.2020 09:08 2,7 C 2,8 C 2,2 C 94 % 1031,0 hPa 0,0 l/m 0 min 0 min 58 W/m 3,2 km/h (1 Bft) 95,74 %
31.03.2020 09:10 2,7 C 2,8 C 2,2 C 93 % 1031,0 hPa 0,0 l/m 0 min 0 min 59 W/m 3,2 km/h (1 Bft) 97,87 %
31.03.2020 09:12 2,7 C 2,8 C 2,2 C 94 % 1031,1 hPa 0,0 l/m 0 min 0 min 61 W/m 3,2 km/h (1 Bft) 97,87 %
31.03.2020 09:14 2,7 C 2,8 C 2,2 C 93 % 1031,1 hPa 0,0 l/m 0 min 0 min 62 W/m 0,0 km/h (0 Bft) 97,87 %
31.03.2020 09:16 2,7 C 3,3 C 2,2 C 93 % 1031,1 hPa 0,0 l/m 0 min 0 min 68 W/m 0,0 km/h (0 Bft) 97,83 %
31.03.2020 09:18 2,8 C 3,3 C 2,2 C 93 % 1031,0 hPa 0,0 l/m 0 min 0 min 66 W/m 3,2 km/h (1 Bft) 97,87 %
31.03.2020 09:20 2,8 C 3,3 C 2,2 C 93 % 1031,1 hPa 0,0 l/m 0 min 0 min 67 W/m 3,2 km/h (1 Bft) 97,87 %
31.03.2020 09:22 2,8 C 3,3 C 2,2 C 93 % 1031,0 hPa 0,0 l/m 0 min 0 min 66 W/m 0,0 km/h (0 Bft) 93,62 %
31.03.2020 09:24 2,8 C 3,3 C 2,2 C 93 % 1031,0 hPa 0,0 l/m 0 min 0 min 62 W/m 0,0 km/h (0 Bft) 97,87 %
31.03.2020 09:26 2,8 C 3,3 C 2,8 C 93 % 1031,0 hPa 0,0 l/m 0 min 0 min 62 W/m 0,0 km/h (0 Bft) 95,74 %
31.03.2020 09:28 2,9 C 3,3 C 2,8 C 93 % 1031,0 hPa 0,0 l/m 0 min 0 min 61 W/m 0,0 km/h (0 Bft) 97,83 %
31.03.2020 09:30 2,9 C 3,9 C 2,8 C 93 % 1031,0 hPa 0,0 l/m 0 min 0 min 60 W/m 9,7 km/h (2 Bft) 100,00 %
31.03.2020 09:32 2,9 C 5,6 C 2,8 C 93 % 1031,0 hPa 0,0 l/m 0 min 0 min 62 W/m 16,1 km/h (3 Bft) 100,00 %
31.03.2020 09:34 3,0 C 7,2 C 2,8 C 93 % 1031,0 hPa 0,0 l/m 0 min 0 min 145 W/m 6,4 km/h (2 Bft) 97,87 %
31.03.2020 09:36 3,1 C 8,3 C 2,8 C 93 % 1031,0 hPa 0,0 l/m 2 min 0 min 320 W/m 6,4 km/h (2 Bft) 100,00 %
31.03.2020 09:38 3,2 C 8,9 C 2,8 C 93 % 1031,0 hPa 0,0 l/m 2 min 0 min 333 W/m 3,2 km/h (1 Bft) 97,87 %
31.03.2020 09:40 3,3 C 9,4 C 2,8 C 93 % 1031,0 hPa 0,0 l/m 2 min 0 min 343 W/m 3,2 km/h (1 Bft) 100,00 %
31.03.2020 09:42 3,4 C 10,0 C 3,3 C 92 % 1031,1 hPa 0,0 l/m 2 min 0 min 344 W/m 0,0 km/h (0 Bft) 97,87 %
31.03.2020 09:44 3,5 C 10,0 C 3,3 C 92 % 1031,1 hPa 0,0 l/m 2 min 0 min 354 W/m 3,2 km/h (1 Bft) 100,00 %
31.03.2020 09:46 3,7 C 10,0 C 3,3 C 92 % 1031,1 hPa 0,0 l/m 2 min 0 min 365 W/m 6,4 km/h (2 Bft) 100,00 %
31.03.2020 09:48 3,8 C 10,0 C 3,3 C 92 % 1031,2 hPa 0,0 l/m 2 min 0 min 357 W/m 3,2 km/h (1 Bft) 100,00 %
31.03.2020 09:50 3,9 C 10,0 C 3,9 C 92 % 1031,2 hPa 0,0 l/m 2 min 0 min 368 W/m 3,2 km/h (1 Bft) 100,00 %
31.03.2020 09:52 4,1 C 10,0 C 3,9 C 92 % 1031,3 hPa 0,0 l/m 2 min 0 min 376 W/m 3,2 km/h (1 Bft) 100,00 %
31.03.2020 09:54 4,2 C 10,6 C 6,7 C 92 % 1031,3 hPa 0,0 l/m 2 min 0 min 396 W/m 0,0 km/h (0 Bft) 100,00 %
31.03.2020 09:56 4,3 C 10,6 C 8,9 C 91 % 1031,3 hPa 0,0 l/m 2 min 0 min 402 W/m 0,0 km/h (0 Bft) 100,00 %
31.03.2020 09:58 4,4 C 11,1 C 10,0 C 91 % 1031,3 hPa 0,0 l/m 2 min 0 min 405 W/m 0,0 km/h (0 Bft) 100,00 %
31.03.2020 10:00 4,6 C 10,6 C 10,6 C 91 % 1031,3 hPa 0,0 l/m 2 min 0 min 411 W/m 9,7 km/h (2 Bft) 100,00 %
31.03.2020 10:02 4,7 C 10,6 C 11,1 C 90 % 1031,3 hPa 0,0 l/m 2 min 0 min 414 W/m 3,2 km/h (1 Bft) 100,00 %
31.03.2020 10:04 4,8 C 11,1 C 12,2 C 90 % 1031,4 hPa 0,0 l/m 2 min 0 min 416 W/m 0,0 km/h (0 Bft) 100,00 %
31.03.2020 10:06 5,0 C 11,7 C 12,2 C 89 % 1031,3 hPa 0,0 l/m 2 min 0 min 431 W/m 0,0 km/h (0 Bft) 97,83 %
31.03.2020 10:08 5,1 C 11,7 C 12,2 C 89 % 1031,4 hPa 0,0 l/m 2 min 0 min 437 W/m 9,7 km/h (2 Bft) 97,87 %
31.03.2020 10:10 5,2 C 11,7 C 12,8 C 89 % 1031,4 hPa 0,0 l/m 2 min 0 min 447 W/m 0,0 km/h (0 Bft) 100,00 %
31.03.2020 10:12 5,3 C 11,7 C 12,8 C 88 % 1031,4 hPa 0,0 l/m 2 min 0 min 454 W/m 6,4 km/h (2 Bft) 100,00 %
31.03.2020 10:14 5,4 C 11,1 C 11,7 C 88 % 1031,4 hPa 0,0 l/m 2 min 0 min 459 W/m 9,7 km/h (2 Bft) 100,00 %
31.03.2020 10:16 5,6 C 11,7 C 12,2 C 87 % 1031,4 hPa 0,0 l/m 2 min 0 min 465 W/m 0,0 km/h (0 Bft) 97,87 %
31.03.2020 10:18 5,7 C 11,7 C 12,2 C 86 % 1031,4 hPa 0,0 l/m 2 min 0 min 465 W/m 6,4 km/h (2 Bft) 100,00 %
31.03.2020 10:20 5,8 C 11,7 C 12,8 C 86 % 1031,4 hPa 0,0 l/m 2 min 0 min 466 W/m 0,0 km/h (0 Bft) 100,00 %
31.03.2020 10:22 5,9 C 11,7 C 12,8 C 85 % 1031,5 hPa 0,0 l/m 2 min 0 min 471 W/m 9,7 km/h (2 Bft) 97,87 %
31.03.2020 10:24 6,1 C 12,2 C 13,3 C 84 % 1031,5 hPa 0,0 l/m 2 min 0 min 483 W/m 3,2 km/h (1 Bft) 100,00 %
31.03.2020 10:26 6,2 C 12,2 C 12,8 C 84 % 1031,5 hPa 0,0 l/m 2 min 0 min 493 W/m 0,0 km/h (0 Bft) 100,00 %
31.03.2020 10:28 6,2 C 12,2 C 13,3 C 83 % 1031,5 hPa 0,0 l/m 2 min 0 min 497 W/m 6,4 km/h (2 Bft) 97,87 %
31.03.2020 10:30 6,3 C 11,7 C 12,2 C 82 % 1031,5 hPa 0,0 l/m 2 min 0 min 502 W/m 0,0 km/h (0 Bft) 97,83 %
31.03.2020 10:32 6,4 C 12,2 C 12,2 C 82 % 1031,4 hPa 0,0 l/m 2 min 0 min 512 W/m 0,0 km/h (0 Bft) 97,87 %
31.03.2020 10:34 6,4 C 12,8 C 12,8 C 81 % 1031,4 hPa 0,0 l/m 2 min 0 min 516 W/m 12,9 km/h (3 Bft) 97,87 %
31.03.2020 10:36 6,5 C 13,3 C 13,3 C 80 % 1031,4 hPa 0,0 l/m 2 min 0 min 528 W/m 12,9 km/h (3 Bft) 97,87 %
31.03.2020 10:38 6,6 C 13,3 C 13,3 C 80 % 1031,4 hPa 0,0 l/m 2 min 0 min 535 W/m 6,4 km/h (2 Bft) 97,87 %
31.03.2020 10:40 6,7 C 13,3 C 13,9 C 80 % 1031,4 hPa 0,0 l/m 2 min 0 min 541 W/m 6,4 km/h (2 Bft) 97,87 %
31.03.2020 10:42 6,8 C 13,3 C 13,9 C 79 % 1031,5 hPa 0,0 l/m 2 min 0 min 541 W/m 12,9 km/h (3 Bft) 95,65 %
31.03.2020 10:44 6,9 C 13,3 C 13,3 C 79 % 1031,5 hPa 0,0 l/m 2 min 0 min 539 W/m 9,7 km/h (2 Bft) 97,87 %
31.03.2020 10:46 7,0 C 12,8 C 13,3 C 79 % 1031,6 hPa 0,0 l/m 2 min 0 min 539 W/m 16,1 km/h (3 Bft) 97,87 %
31.03.2020 10:48 7,1 C 12,2 C 12,8 C 78 % 1031,5 hPa 0,0 l/m 2 min 0 min 540 W/m 12,9 km/h (3 Bft) 97,87 %
31.03.2020 10:50 7,1 C 11,7 C 11,7 C 78 % 1031,6 hPa 0,0 l/m 2 min 0 min 538 W/m 16,1 km/h (3 Bft) 97,87 %
31.03.2020 10:52 7,1 C 12,2 C 10,6 C 77 % 1031,6 hPa 0,0 l/m 2 min 0 min 556 W/m 3,2 km/h (1 Bft) 97,87 %
31.03.2020 10:54 7,1 C 12,8 C 10,0 C 77 % 1031,7 hPa 0,0 l/m 2 min 0 min 570 W/m 9,7 km/h (2 Bft) 97,87 %
31.03.2020 10:56 7,2 C 12,8 C 9,4 C 77 % 1031,6 hPa 0,0 l/m 2 min 0 min 573 W/m 9,7 km/h (2 Bft) 97,87 %
31.03.2020 10:58 7,2 C 12,8 C 8,3 C 77 % 1031,6 hPa 0,0 l/m 2 min 0 min 564 W/m 9,7 km/h (2 Bft) 91,49 %
31.03.2020 11:00 7,3 C 13,3 C 7,8 C 76 % 1031,6 hPa 0,0 l/m 2 min 0 min 580 W/m 12,9 km/h (3 Bft) 97,87 %
31.03.2020 11:02 7,3 C 13,3 C 7,2 C 76 % 1031,6 hPa 0,0 l/m 2 min 0 min 641 W/m 16,1 km/h (3 Bft) 97,87 %
31.03.2020 11:04 7,3 C 13,9 C 7,2 C 76 % 1031,6 hPa 0,0 l/m 2 min 0 min 624 W/m 0,0 km/h (0 Bft) 97,83 %
31.03.2020 11:06 7,4 C 13,9 C 7,2 C 77 % 1031,6 hPa 0,0 l/m 2 min 0 min 621 W/m 0,0 km/h (0 Bft) 97,87 %
31.03.2020 11:08 7,6 C 13,9 C 6,7 C 76 % 1031,6 hPa 0,0 l/m 2 min 0 min 631 W/m 16,1 km/h (3 Bft) 97,87 %
31.03.2020 11:10 7,6 C 14,4 C 6,7 C 76 % 1031,6 hPa 0,0 l/m 2 min 0 min 627 W/m 3,2 km/h (1 Bft) 97,87 %
31.03.2020 11:12 7,6 C 14,4 C 6,7 C 75 % 1031,7 hPa 0,0 l/m 2 min 0 min 616 W/m 3,2 km/h (1 Bft) 100,00 %
31.03.2020 11:14 7,7 C 13,9 C 6,7 C 75 % 1031,6 hPa 0,0 l/m 2 min 0 min 620 W/m 12,9 km/h (3 Bft) 100,00 %
31.03.2020 11:16 7,7 C 13,9 C 6,7 C 74 % 1031,6 hPa 0,0 l/m 2 min 0 min 626 W/m 12,9 km/h (3 Bft) 97,83 %
31.03.2020 11:18 7,8 C 14,4 C 6,7 C 74 % 1031,6 hPa 0,0 l/m 2 min 0 min 629 W/m 9,7 km/h (2 Bft) 97,87 %
31.03.2020 11:20 7,8 C 13,9 C 6,7 C 73 % 1031,6 hPa 0,0 l/m 2 min 0 min 629 W/m 9,7 km/h (2 Bft) 97,87 %
31.03.2020 11:22 7,8 C 13,3 C 6,7 C 73 % 1031,6 hPa 0,0 l/m 2 min 0 min 641 W/m 12,9 km/h (3 Bft) 97,87 %
31.03.2020 11:24 7,8 C 13,9 C 6,7 C 72 % 1031,5 hPa 0,0 l/m 2 min 0 min 644 W/m 9,7 km/h (2 Bft) 95,74 %
31.03.2020 11:26 7,8 C 13,3 C 6,7 C 73 % 1031,5 hPa 0,0 l/m 2 min 0 min 646 W/m 12,9 km/h (3 Bft) 95,74 %
31.03.2020 11:28 7,8 C 13,9 C 6,7 C 73 % 1031,5 hPa 0,0 l/m 2 min 0 min 641 W/m 9,7 km/h (2 Bft) 97,83 %
31.03.2020 11:30 7,9 C 15,0 C 6,7 C 73 % 1031,5 hPa 0,0 l/m 2 min 0 min 648 W/m 9,7 km/h (2 Bft) 97,87 %
31.03.2020 11:32 7,9 C 13,9 C 6,7 C 72 % 1031,4 hPa 0,0 l/m 2 min 0 min 657 W/m 12,9 km/h (3 Bft) 97,87 %
31.03.2020 11:34 8,0 C 14,4 C 6,7 C 72 % 1031,5 hPa 0,0 l/m 2 min 0 min 655 W/m 12,9 km/h (3 Bft) 97,87 %
31.03.2020 11:36 8,1 C 14,4 C 6,7 C 71 % 1031,4 hPa 0,0 l/m 2 min 0 min 676 W/m 9,7 km/h (2 Bft) 97,87 %
31.03.2020 11:38 8,1 C 13,9 C 6,7 C 71 % 1031,4 hPa 0,0 l/m 2 min 0 min 678 W/m 12,9 km/h (3 Bft) 95,65 %
31.03.2020 11:40 8,1 C 13,9 C 6,7 C 70 % 1031,4 hPa 0,0 l/m 2 min 0 min 675 W/m 12,9 km/h (3 Bft) 95,65 %
31.03.2020 11:42 8,1 C 13,9 C 6,7 C 70 % 1031,4 hPa 0,0 l/m 2 min 0 min 672 W/m 6,4 km/h (2 Bft) 97,87 %
31.03.2020 11:44 8,1 C 13,9 C 6,7 C 70 % 1031,4 hPa 0,0 l/m 2 min 0 min 673 W/m 6,4 km/h (2 Bft) 97,87 %
31.03.2020 11:46 8,1 C 13,9 C 6,7 C 69 % 1031,4 hPa 0,0 l/m 2 min 0 min 679 W/m 12,9 km/h (3 Bft) 97,87 %
31.03.2020 11:48 8,1 C 13,3 C 6,7 C 68 % 1031,4 hPa 0,0 l/m 2 min 0 min 686 W/m 12,9 km/h (3 Bft) 97,87 %
31.03.2020 11:50 8,1 C 14,4 C 6,7 C 69 % 1031,4 hPa 0,0 l/m 2 min 0 min 690 W/m 9,7 km/h (2 Bft) 97,83 %
31.03.2020 11:52 8,2 C 13,9 C 6,7 C 68 % 1031,3 hPa 0,0 l/m 2 min 0 min 695 W/m 16,1 km/h (3 Bft) 97,87 %
31.03.2020 11:54 8,2 C 14,4 C 6,7 C 68 % 1031,3 hPa 0,0 l/m 2 min 0 min 697 W/m 9,7 km/h (2 Bft) 97,87 %
31.03.2020 11:56 8,2 C 14,4 C 6,7 C 68 % 1031,3 hPa 0,0 l/m 2 min 0 min 701 W/m 12,9 km/h (3 Bft) 97,87 %
31.03.2020 11:58 8,2 C 13,9 C 6,7 C 67 % 1031,2 hPa 0,0 l/m 2 min 0 min 707 W/m 12,9 km/h (3 Bft) 97,87 %
31.03.2020 12:00 8,2 C 13,9 C 7,2 C 67 % 1031,2 hPa 0,0 l/m 2 min 0 min 702 W/m 16,1 km/h (3 Bft) 97,87 %
31.03.2020 12:02 8,3 C 15,0 C 7,2 C 66 % 1031,3 hPa 0,0 l/m 2 min 0 min 709 W/m 12,9 km/h (3 Bft) 100,00 %
31.03.2020 12:04 8,4 C 15,6 C 7,2 C 67 % 1031,3 hPa 0,0 l/m 2 min 0 min 698 W/m 9,7 km/h (2 Bft) 100,00 %
31.03.2020 12:08 8,6 C 15,0 C 7,2 C 66 % 1031,2 hPa 0,0 l/m 4 min 0 min 716 W/m 22,5 km/h (4 Bft) 97,87 %
31.03.2020 12:10 8,6 C 14,4 C 7,2 C 65 % 1031,2 hPa 0,0 l/m 2 min 0 min 742 W/m 16,1 km/h (3 Bft) 97,87 %
31.03.2020 12:12 8,7 C 14,4 C 7,8 C 64 % 1031,2 hPa 0,0 l/m 2 min 0 min 738 W/m 12,9 km/h (3 Bft) 95,74 %
31.03.2020 12:14 8,7 C 12,8 C 7,8 C 65 % 1031,2 hPa 0,0 l/m 2 min 0 min 583 W/m 6,4 km/h (2 Bft) 95,65 %
31.03.2020 12:16 8,6 C 11,7 C 7,2 C 63 % 1031,1 hPa 0,0 l/m 0 min 0 min 150 W/m 9,7 km/h (2 Bft) 97,87 %
31.03.2020 12:18 8,6 C 13,3 C 7,2 C 63 % 1031,1 hPa 0,0 l/m 2 min 0 min 747 W/m 9,7 km/h (2 Bft) 97,87 %
31.03.2020 12:20 8,6 C 12,8 C 7,2 C 63 % 1031,1 hPa 0,0 l/m 2 min 0 min 516 W/m 12,9 km/h (3 Bft) 97,87 %
31.03.2020 12:22 8,5 C 12,2 C 7,2 C 63 % 1031,0 hPa 0,0 l/m 2 min 0 min 396 W/m 12,9 km/h (3 Bft) 97,87 %
31.03.2020 12:25 8,5 C 11,1 C 7,2 C 63 % 1031,1 hPa 0,0 l/m 3 min 0 min 332 W/m 12,9 km/h (3 Bft) 100,00 %
31.03.2020 12:30 8,4 C 11,7 C 7,8 C 63 % 1031,1 hPa 0,0 l/m 5 min 0 min 681 W/m 6,4 km/h (2 Bft) 97,30 %
31.03.2020 12:32 8,4 C 12,8 C 7,8 C 62 % 1031,1 hPa 0,0 l/m 0 min 0 min 181 W/m 12,9 km/h (3 Bft) 95,74 %
31.03.2020 12:34 8,4 C 13,9 C 8,3 C 63 % 1031,0 hPa 0,0 l/m 2 min 0 min 739 W/m 19,3 km/h (3 Bft) 97,83 %
31.03.2020 12:36 8,5 C 15,6 C 8,9 C 64 % 1031,0 hPa 0,0 l/m 2 min 0 min 886 W/m 16,1 km/h (3 Bft) 97,87 %
31.03.2020 12:38 8,6 C 16,1 C 8,9 C 64 % 1031,0 hPa 0,0 l/m 2 min 0 min 861 W/m 12,9 km/h (3 Bft) 97,87 %
31.03.2020 12:40 8,7 C 15,0 C 8,9 C 63 % 1030,9 hPa 0,0 l/m 2 min 0 min 818 W/m 12,9 km/h (3 Bft) 97,87 %
31.03.2020 12:42 8,8 C 15,0 C 8,3 C 63 % 1030,9 hPa 0,0 l/m 2 min 0 min 807 W/m 16,1 km/h (3 Bft) 97,87 %
31.03.2020 12:44 8,9 C 16,1 C 8,9 C 64 % 1030,9 hPa 0,0 l/m 2 min 0 min 857 W/m 16,1 km/h (3 Bft) 97,83 %
31.03.2020 12:46 9,1 C 16,7 C 9,4 C 63 % 1030,9 hPa 0,0 l/m 2 min 0 min 898 W/m 12,9 km/h (3 Bft) 95,74 %
31.03.2020 12:48 9,2 C 17,2 C 9,4 C 63 % 1030,8 hPa 0,0 l/m 2 min 0 min 891 W/m 12,9 km/h (3 Bft) 97,87 %
31.03.2020 12:50 9,4 C 16,1 C 10,0 C 60 % 1030,8 hPa 0,0 l/m 2 min 0 min 864 W/m 12,9 km/h (3 Bft) 97,87 %
31.03.2020 12:52 9,4 C 15,6 C 9,4 C 59 % 1030,8 hPa 0,0 l/m 2 min 0 min 838 W/m 16,1 km/h (3 Bft) 97,87 %
31.03.2020 12:54 9,5 C 15,6 C 9,4 C 58 % 1030,8 hPa 0,0 l/m 2 min 0 min 796 W/m 9,7 km/h (2 Bft) 97,87 %
31.03.2020 12:56 9,5 C 15,0 C 8,9 C 58 % 1031,0 hPa 0,0 l/m 2 min 0 min 774 W/m 16,1 km/h (3 Bft) 95,65 %
31.03.2020 12:58 9,6 C 15,6 C 8,9 C 58 % 1030,8 hPa 0,0 l/m 2 min 0 min 778 W/m 6,4 km/h (2 Bft) 94,12 %
31.03.2020 13:00 9,6 C 16,1 C 8,9 C 58 % 1030,8 hPa 0,0 l/m 2 min 0 min 779 W/m 9,7 km/h (2 Bft) 96,61 %
31.03.2020 13:05 9,6 C 15,6 C 9,4 C 55 % 1030,8 hPa 0,0 l/m 5 min 0 min 776 W/m 16,1 km/h (3 Bft) 97,37 %
31.03.2020 13:10 9,7 C 15,0 C 9,4 C 54 % 1030,9 hPa 0,0 l/m 5 min 0 min 782 W/m 19,3 km/h (3 Bft) 97,06 %
31.03.2020 13:12 9,8 C 15,0 C 9,4 C 55 % 1030,8 hPa 0,0 l/m 2 min 0 min 781 W/m 6,4 km/h (2 Bft) 95,74 %
31.03.2020 13:14 9,7 C 14,4 C 8,9 C 53 % 1030,8 hPa 0,0 l/m 2 min 0 min 780 W/m 3,2 km/h (1 Bft) 95,74 %
31.03.2020 13:16 9,8 C 15,6 C 9,4 C 55 % 1030,8 hPa 0,0 l/m 2 min 0 min 780 W/m 6,4 km/h (2 Bft) 95,65 %
31.03.2020 13:18 9,8 C 15,6 C 9,4 C 55 % 1030,8 hPa 0,0 l/m 2 min 0 min 778 W/m 12,9 km/h (3 Bft) 93,62 %
31.03.2020 13:20 9,9 C 16,1 C 9,4 C 56 % 1030,8 hPa 0,0 l/m 2 min 0 min 779 W/m 12,9 km/h (3 Bft) 93,62 %
31.03.2020 13:22 9,9 C 16,1 C 9,4 C 55 % 1030,7 hPa 0,0 l/m 2 min 0 min 776 W/m 9,7 km/h (2 Bft) 95,74 %
31.03.2020 13:24 9,9 C 15,6 C 9,4 C 54 % 1030,7 hPa 0,0 l/m 2 min 0 min 776 W/m 16,1 km/h (3 Bft) 93,62 %
31.03.2020 13:26 10,1 C 16,1 C 10,0 C 56 % 1030,7 hPa 0,0 l/m 2 min 0 min 780 W/m 12,9 km/h (3 Bft) 95,74 %
31.03.2020 13:28 10,1 C 16,1 C 10,0 C 54 % 1030,7 hPa 0,0 l/m 2 min 0 min 781 W/m 9,7 km/h (2 Bft) 93,48 %
31.03.2020 13:30 10,1 C 15,6 C 10,0 C 52 % 1030,7 hPa 0,0 l/m 2 min 0 min 783 W/m 12,9 km/h (3 Bft) 95,74 %
31.03.2020 13:32 10,1 C 15,6 C 10,0 C 54 % 1030,8 hPa 0,0 l/m 2 min 0 min 784 W/m 12,9 km/h (3 Bft) 95,74 %
31.03.2020 13:34 10,2 C 15,6 C 10,0 C 54 % 1030,8 hPa 0,0 l/m 2 min 0 min 786 W/m 16,1 km/h (3 Bft) 95,74 %
31.03.2020 13:36 10,2 C 15,6 C 10,0 C 54 % 1030,7 hPa 0,0 l/m 2 min 0 min 782 W/m 6,4 km/h (2 Bft) 93,62 %
31.03.2020 13:38 10,2 C 15,6 C 10,6 C 54 % 1030,7 hPa 0,0 l/m 2 min 0 min 781 W/m 12,9 km/h (3 Bft) 93,62 %
31.03.2020 13:40 10,2 C 16,1 C 10,6 C 55 % 1030,7 hPa 0,0 l/m 2 min 0 min 783 W/m 9,7 km/h (2 Bft) 95,65 %
31.03.2020 13:42 10,3 C 16,7 C 12,8 C 55 % 1030,7 hPa 0,0 l/m 2 min 0 min 782 W/m 12,9 km/h (3 Bft) 95,74 %
31.03.2020 13:44 10,3 C 16,1 C 15,0 C 55 % 1030,7 hPa 0,0 l/m 2 min 0 min 786 W/m 16,1 km/h (3 Bft) 97,87 %
31.03.2020 13:45 10,3 C 16,1 C 15,6 C 54 % 1030,7 hPa 0,0 l/m 1 min 0 min 787 W/m 16,1 km/h (3 Bft) 99,12 %
31.03.2020 13:50 10,5 C 16,7 C 18,3 C 55 % 1030,6 hPa 0,0 l/m 5 min 0 min 786 W/m 16,1 km/h (3 Bft) 100,00 %
31.03.2020 13:55 10,5 C 15,6 C 18,3 C 54 % 1030,6 hPa 0,0 l/m 5 min 0 min 779 W/m 12,9 km/h (3 Bft) 100,00 %
31.03.2020 14:00 10,5 C 15,0 C 17,8 C 53 % 1030,5 hPa 0,0 l/m 5 min 0 min 777 W/m 12,9 km/h (3 Bft) 100,00 %
31.03.2020 14:04 10,4 C 15,6 C 18,3 C 54 % 1030,5 hPa 0,0 l/m 4 min 0 min 766 W/m 9,7 km/h (2 Bft) 96,00 %
31.03.2020 14:06 10,4 C 15,6 C 17,8 C 53 % 1030,5 hPa 0,0 l/m 2 min 0 min 769 W/m 12,9 km/h (3 Bft) 95,65 %
31.03.2020 14:08 10,4 C 15,6 C 17,8 C 53 % 1030,5 hPa 0,0 l/m 2 min 0 min 775 W/m 9,7 km/h (2 Bft) 95,35 %
31.03.2020 14:10 10,4 C 16,1 C 17,8 C 52 % 1030,5 hPa 0,0 l/m 2 min 0 min 777 W/m 12,9 km/h (3 Bft) 95,74 %
31.03.2020 14:12 10,4 C 15,6 C 17,8 C 52 % 1030,5 hPa 0,0 l/m 2 min 0 min 774 W/m 16,1 km/h (3 Bft) 91,49 %
31.03.2020 14:14 10,5 C 16,1 C 18,9 C 53 % 1030,5 hPa 0,0 l/m 2 min 0 min 776 W/m 6,4 km/h (2 Bft) 93,62 %
31.03.2020 14:16 10,6 C 16,7 C 19,4 C 53 % 1030,5 hPa 0,0 l/m 2 min 0 min 771 W/m 16,1 km/h (3 Bft) 98,00 %
31.03.2020 14:18 10,6 C 16,7 C 18,9 C 52 % 1030,5 hPa 0,0 l/m 2 min 0 min 770 W/m 9,7 km/h (2 Bft) 97,87 %
31.03.2020 14:20 10,6 C 16,7 C 19,4 C 51 % 1030,4 hPa 0,0 l/m 2 min 0 min 773 W/m 12,9 km/h (3 Bft) 97,87 %
31.03.2020 14:22 10,7 C 16,7 C 19,4 C 51 % 1030,5 hPa 0,0 l/m 2 min 0 min 766 W/m 3,2 km/h (1 Bft) 97,87 %
31.03.2020 14:24 10,7 C 15,6 C 17,8 C 51 % 1030,5 hPa 0,0 l/m 2 min 0 min 768 W/m 16,1 km/h (3 Bft) 95,45 %
31.03.2020 14:26 10,6 C 15,6 C 18,3 C 53 % 1030,5 hPa 0,0 l/m 2 min 0 min 766 W/m 19,3 km/h (3 Bft) 97,96 %
31.03.2020 14:28 10,6 C 16,7 C 18,9 C 52 % 1030,4 hPa 0,0 l/m 2 min 0 min 767 W/m 9,7 km/h (2 Bft) 97,87 %
31.03.2020 14:30 10,7 C 16,7 C 18,9 C 52 % 1030,4 hPa 0,0 l/m 2 min 0 min 760 W/m 12,9 km/h (3 Bft) 97,87 %
31.03.2020 14:32 10,7 C 16,7 C 17,8 C 52 % 1030,4 hPa 0,0 l/m 2 min 0 min 761 W/m 9,7 km/h (2 Bft) 100,00 %
31.03.2020 14:34 10,8 C 16,7 C 16,7 C 52 % 1030,4 hPa 0,0 l/m 2 min 0 min 759 W/m 16,1 km/h (3 Bft) 97,87 %
31.03.2020 14:36 10,8 C 16,1 C 13,9 C 51 % 1030,4 hPa 0,0 l/m 2 min 0 min 759 W/m 9,7 km/h (2 Bft) 97,87 %
31.03.2020 14:38 10,8 C 15,6 C 12,8 C 50 % 1030,4 hPa 0,0 l/m 2 min 0 min 755 W/m 12,9 km/h (3 Bft) 97,87 %
31.03.2020 14:40 10,8 C 17,2 C 12,8 C 51 % 1030,3 hPa 0,0 l/m 2 min 0 min 756 W/m 6,4 km/h (2 Bft) 97,83 %
31.03.2020 14:42 10,9 C 17,2 C 12,2 C 50 % 1030,2 hPa 0,0 l/m 2 min 0 min 758 W/m 6,4 km/h (2 Bft) 97,87 %
31.03.2020 14:44 10,9 C 17,2 C 12,2 C 50 % 1030,2 hPa 0,0 l/m 2 min 0 min 756 W/m 12,9 km/h (3 Bft) 97,87 %
31.03.2020 14:46 11,1 C 17,8 C 12,2 C 51 % 1030,2 hPa 0,0 l/m 2 min 0 min 752 W/m 9,7 km/h (2 Bft) 97,87 %
31.03.2020 14:48 11,1 C 16,7 C 11,7 C 48 % 1030,2 hPa 0,0 l/m 2 min 0 min 751 W/m 12,9 km/h (3 Bft) 100,00 %
31.03.2020 14:50 11,1 C 16,1 C 11,1 C 47 % 1030,2 hPa 0,0 l/m 2 min 0 min 751 W/m 9,7 km/h (2 Bft) 97,87 %
31.03.2020 14:52 11,1 C 16,1 C 11,1 C 48 % 1030,2 hPa 0,0 l/m 2 min 0 min 750 W/m 12,9 km/h (3 Bft) 100,00 %
31.03.2020 14:54 11,1 C 16,1 C 11,1 C 48 % 1030,1 hPa 0,0 l/m 2 min 0 min 749 W/m 9,7 km/h (2 Bft) 100,00 %
31.03.2020 14:56 11,1 C 15,0 C 11,7 C 48 % 1030,1 hPa 0,0 l/m 2 min 0 min 746 W/m 12,9 km/h (3 Bft) 98,15 %
31.03.2020 14:58 11,0 C 15,0 C 11,1 C 48 % 1030,1 hPa 0,0 l/m 2 min 0 min 744 W/m 9,7 km/h (2 Bft) 97,83 %
31.03.2020 15:00 10,9 C 15,0 C 11,1 C 49 % 1030,1 hPa 0,0 l/m 2 min 0 min 742 W/m 12,9 km/h (3 Bft) 100,00 %
31.03.2020 15:02 10,8 C 15,0 C 11,1 C 49 % 1030,1 hPa 0,0 l/m 2 min 0 min 738 W/m 12,9 km/h (3 Bft) 100,00 %
31.03.2020 15:04 10,8 C 15,0 C 11,1 C 51 % 1030,1 hPa 0,0 l/m 2 min 0 min 732 W/m 16,1 km/h (3 Bft) 100,00 %
31.03.2020 15:06 10,8 C 16,7 C 11,1 C 53 % 1030,1 hPa 0,0 l/m 2 min 0 min 731 W/m 12,9 km/h (3 Bft) 100,00 %
31.03.2020 15:08 10,9 C 16,7 C 11,7 C 52 % 1030,1 hPa 0,0 l/m 2 min 0 min 741 W/m 16,1 km/h (3 Bft) 100,00 %
31.03.2020 15:10 10,9 C 15,0 C 11,1 C 51 % 1030,1 hPa 0,0 l/m 2 min 0 min 701 W/m 9,7 km/h (2 Bft) 100,00 %
31.03.2020 15:12 10,9 C 15,0 C 11,1 C 51 % 1030,0 hPa 0,0 l/m 2 min 0 min 691 W/m 9,7 km/h (2 Bft) 100,00 %
31.03.2020 15:14 11,0 C 16,1 C 11,7 C 52 % 1030,0 hPa 0,0 l/m 2 min 0 min 700 W/m 16,1 km/h (3 Bft) 100,00 %
31.03.2020 15:16 11,1 C 16,1 C 11,7 C 52 % 1030,0 hPa 0,0 l/m 2 min 0 min 703 W/m 16,1 km/h (3 Bft) 97,37 %
31.03.2020 15:18 11,1 C 16,7 C 11,7 C 51 % 1029,9 hPa 0,0 l/m 2 min 0 min 691 W/m 19,3 km/h (3 Bft) 100,00 %
31.03.2020 15:20 11,3 C 17,2 C 12,2 C 52 % 1029,9 hPa 0,0 l/m 2 min 0 min 696 W/m 12,9 km/h (3 Bft) 100,00 %
31.03.2020 15:22 11,4 C 17,2 C 11,7 C 51 % 1029,9 hPa 0,0 l/m 2 min 0 min 706 W/m 6,4 km/h (2 Bft) 100,00 %
31.03.2020 15:24 11,4 C 16,7 C 11,7 C 50 % 1029,8 hPa 0,0 l/m 2 min 0 min 698 W/m 19,3 km/h (3 Bft) 97,37 %
31.03.2020 15:26 11,4 C 15,6 C 11,7 C 50 % 1029,9 hPa 0,0 l/m 2 min 0 min 681 W/m 12,9 km/h (3 Bft) 96,00 %
31.03.2020 15:28 11,4 C 15,6 C 11,7 C 51 % 1029,8 hPa 0,0 l/m 2 min 0 min 680 W/m 6,4 km/h (2 Bft) 97,83 %
31.03.2020 15:30 11,4 C 15,0 C 11,1 C 49 % 1029,8 hPa 0,0 l/m 2 min 0 min 665 W/m 16,1 km/h (3 Bft) 98,15 %
31.03.2020 15:32 11,4 C 16,1 C 11,7 C 50 % 1029,8 hPa 0,0 l/m 2 min 0 min 677 W/m 9,7 km/h (2 Bft) 97,37 %
31.03.2020 15:34 11,3 C 16,1 C 11,7 C 51 % 1029,7 hPa 0,0 l/m 2 min 0 min 682 W/m 12,9 km/h (3 Bft) 97,87 %
31.03.2020 15:36 11,3 C 15,6 C 11,7 C 50 % 1029,8 hPa 0,0 l/m 2 min 0 min 680 W/m 12,9 km/h (3 Bft) 95,92 %
31.03.2020 15:38 11,3 C 15,6 C 11,7 C 50 % 1029,8 hPa 0,0 l/m 2 min 0 min 674 W/m 12,9 km/h (3 Bft) 95,65 %
31.03.2020 15:40 11,2 C 15,0 C 11,1 C 50 % 1029,7 hPa 0,0 l/m 2 min 0 min 664 W/m 12,9 km/h (3 Bft) 97,83 %
31.03.2020 15:42 11,2 C 15,6 C 11,1 C 50 % 1029,7 hPa 0,0 l/m 2 min 0 min 654 W/m 12,9 km/h (3 Bft) 95,74 %
31.03.2020 15:44 11,2 C 15,6 C 11,7 C 50 % 1029,8 hPa 0,0 l/m 2 min 0 min 657 W/m 9,7 km/h (2 Bft) 96,30 %
31.03.2020 15:46 11,2 C 15,6 C 11,1 C 50 % 1029,7 hPa 0,0 l/m 2 min 0 min 654 W/m 9,7 km/h (2 Bft) 97,37 %
31.03.2020 15:48 11,2 C 15,6 C 10,6 C 50 % 1029,6 hPa 0,0 l/m 2 min 0 min 648 W/m 6,4 km/h (2 Bft) 97,83 %
31.03.2020 15:50 11,3 C 16,1 C 11,7 C 50 % 1029,6 hPa 0,0 l/m 2 min 0 min 649 W/m 12,9 km/h (3 Bft) 97,96 %
31.03.2020 15:52 11,3 C 16,7 C 11,7 C 50 % 1029,6 hPa 0,0 l/m 2 min 0 min 646 W/m 16,1 km/h (3 Bft) 97,87 %
31.03.2020 15:54 11,4 C 16,7 C 11,7 C 50 % 1029,6 hPa 0,0 l/m 2 min 0 min 648 W/m 19,3 km/h (3 Bft) 97,87 %
31.03.2020 15:56 11,4 C 16,1 C 11,7 C 50 % 1029,5 hPa 0,0 l/m 2 min 0 min 642 W/m 12,9 km/h (3 Bft) 95,74 %
31.03.2020 15:58 11,6 C 16,7 C 11,7 C 51 % 1029,5 hPa 0,0 l/m 2 min 0 min 635 W/m 6,4 km/h (2 Bft) 98,11 %
31.03.2020 16:00 11,6 C 15,6 C 11,7 C 50 % 1029,4 hPa 0,0 l/m 2 min 0 min 630 W/m 12,9 km/h (3 Bft) 100,00 %
31.03.2020 16:02 11,6 C 16,1 C 11,7 C 50 % 1029,4 hPa 0,0 l/m 2 min 0 min 622 W/m 9,7 km/h (2 Bft) 100,00 %
31.03.2020 16:04 11,6 C 16,1 C 11,7 C 51 % 1029,4 hPa 0,0 l/m 2 min 0 min 621 W/m 12,9 km/h (3 Bft) 100,00 %
31.03.2020 16:06 11,7 C 16,1 C 11,7 C 49 % 1029,4 hPa 0,0 l/m 2 min 0 min 616 W/m 9,7 km/h (2 Bft) 100,00 %
31.03.2020 16:08 11,7 C 16,1 C 11,7 C 50 % 1029,4 hPa 0,0 l/m 2 min 0 min 609 W/m 6,4 km/h (2 Bft) 100,00 %
31.03.2020 16:10 11,8 C 16,7 C 12,2 C 51 % 1029,4 hPa 0,0 l/m 2 min 0 min 606 W/m 6,4 km/h (2 Bft) 100,00 %
31.03.2020 16:12 11,8 C 16,7 C 11,7 C 50 % 1029,4 hPa 0,0 l/m 2 min 0 min 601 W/m 16,1 km/h (3 Bft) 100,00 %
31.03.2020 16:14 11,8 C 16,7 C 12,2 C 49 % 1029,4 hPa 0,0 l/m 2 min 0 min 599 W/m 9,7 km/h (2 Bft) 100,00 %
31.03.2020 16:16 11,9 C 16,7 C 12,2 C 50 % 1029,4 hPa 0,0 l/m 2 min 0 min 589 W/m 9,7 km/h (2 Bft) 100,00 %
31.03.2020 16:18 12,0 C 17,2 C 12,2 C 51 % 1029,4 hPa 0,0 l/m 2 min 0 min 585 W/m 6,4 km/h (2 Bft) 100,00 %
31.03.2020 16:20 12,0 C 15,6 C 11,7 C 48 % 1029,3 hPa 0,0 l/m 2 min 0 min 585 W/m 22,5 km/h (4 Bft) 100,00 %
31.03.2020 16:25 11,9 C 16,1 C 12,2 C 48 % 1029,3 hPa 0,0 l/m 5 min 0 min 577 W/m 16,1 km/h (3 Bft) 100,00 %
31.03.2020 16:28 11,9 C 16,1 C 12,2 C 49 % 1029,3 hPa 0,0 l/m 3 min 0 min 562 W/m 16,1 km/h (3 Bft) 100,00 %
31.03.2020 16:30 11,9 C 15,6 C 11,7 C 48 % 1029,3 hPa 0,0 l/m 2 min 0 min 566 W/m 16,1 km/h (3 Bft) 100,00 %
31.03.2020 16:32 11,8 C 15,6 C 12,2 C 47 % 1029,3 hPa 0,0 l/m 2 min 0 min 559 W/m 3,2 km/h (1 Bft) 100,00 %
31.03.2020 16:34 11,8 C 15,0 C 12,2 C 49 % 1029,3 hPa 0,0 l/m 2 min 0 min 550 W/m 9,7 km/h (2 Bft) 100,00 %
31.03.2020 16:36 11,7 C 15,0 C 11,7 C 48 % 1029,3 hPa 0,0 l/m 2 min 0 min 547 W/m 9,7 km/h (2 Bft) 100,00 %
31.03.2020 16:38 11,7 C 15,6 C 11,7 C 49 % 1029,2 hPa 0,0 l/m 2 min 0 min 540 W/m 9,7 km/h (2 Bft) 100,00 %
31.03.2020 16:40 11,7 C 15,6 C 11,7 C 48 % 1029,2 hPa 0,0 l/m 2 min 0 min 535 W/m 9,7 km/h (2 Bft) 97,87 %
31.03.2020 16:42 11,7 C 15,0 C 11,7 C 48 % 1029,2 hPa 0,0 l/m 2 min 0 min 534 W/m 9,7 km/h (2 Bft) 97,87 %
31.03.2020 16:44 11,7 C 15,6 C 11,7 C 49 % 1029,3 hPa 0,0 l/m 2 min 0 min 531 W/m 12,9 km/h (3 Bft) 95,74 %
31.03.2020 16:46 11,7 C 15,6 C 11,7 C 47 % 1029,2 hPa 0,0 l/m 2 min 0 min 529 W/m 12,9 km/h (3 Bft) 97,87 %
31.03.2020 16:48 11,7 C 15,6 C 13,3 C 48 % 1029,2 hPa 0,0 l/m 2 min 0 min 519 W/m 9,7 km/h (2 Bft) 97,83 %
31.03.2020 16:50 11,8 C 16,1 C 13,9 C 49 % 1029,1 hPa 0,0 l/m 2 min 0 min 515 W/m 9,7 km/h (2 Bft) 97,87 %
31.03.2020 16:52 11,8 C 15,6 C 12,8 C 48 % 1029,1 hPa 0,0 l/m 2 min 0 min 509 W/m 6,4 km/h (2 Bft) 95,74 %
31.03.2020 16:54 11,8 C 15,6 C 12,8 C 48 % 1029,1 hPa 0,0 l/m 2 min 0 min 503 W/m 12,9 km/h (3 Bft) 97,87 %
31.03.2020 16:56 11,8 C 15,6 C 13,3 C 47 % 1029,0 hPa 0,0 l/m 2 min 0 min 498 W/m 12,9 km/h (3 Bft) 97,87 %
31.03.2020 16:58 11,8 C 15,0 C 13,9 C 47 % 1029,0 hPa 0,0 l/m 2 min 0 min 496 W/m 12,9 km/h (3 Bft) 95,74 %
31.03.2020 17:00 11,8 C 15,6 C 15,6 C 47 % 1028,9 hPa 0,0 l/m 2 min 0 min 492 W/m 12,9 km/h (3 Bft) 95,65 %
31.03.2020 17:02 11,8 C 15,0 C 16,1 C 48 % 1029,0 hPa 0,0 l/m 2 min 0 min 486 W/m 12,9 km/h (3 Bft) 97,87 %
31.03.2020 17:04 11,8 C 15,6 C 16,7 C 47 % 1028,9 hPa 0,0 l/m 2 min 0 min 479 W/m 9,7 km/h (2 Bft) 97,87 %
31.03.2020 17:06 11,8 C 14,4 C 15,6 C 46 % 1029,0 hPa 0,0 l/m 2 min 0 min 474 W/m 19,3 km/h (3 Bft) 95,74 %
31.03.2020 17:08 11,7 C 13,9 C 13,9 C 46 % 1028,9 hPa 0,0 l/m 2 min 0 min 470 W/m 12,9 km/h (3 Bft) 97,87 %
31.03.2020 17:10 11,6 C 13,9 C 13,3 C 46 % 1028,9 hPa 0,0 l/m 2 min 0 min 466 W/m 9,7 km/h (2 Bft) 97,87 %
31.03.2020 17:12 11,5 C 14,4 C 13,3 C 47 % 1028,9 hPa 0,0 l/m 2 min 0 min 460 W/m 9,7 km/h (2 Bft) 97,83 %
31.03.2020 17:14 11,4 C 13,9 C 13,3 C 46 % 1028,9 hPa 0,0 l/m 2 min 0 min 455 W/m 12,9 km/h (3 Bft) 97,87 %
31.03.2020 17:16 11,3 C 13,9 C 13,9 C 45 % 1028,8 hPa 0,0 l/m 2 min 0 min 448 W/m 9,7 km/h (2 Bft) 95,74 %
31.03.2020 17:18 11,3 C 14,4 C 13,9 C 46 % 1028,9 hPa 0,0 l/m 2 min 0 min 440 W/m 12,9 km/h (3 Bft) 93,62 %
31.03.2020 17:20 11,3 C 13,9 C 13,3 C 45 % 1028,9 hPa 0,0 l/m 2 min 0 min 433 W/m 12,9 km/h (3 Bft) 97,87 %
31.03.2020 17:22 11,2 C 13,3 C 13,9 C 45 % 1028,9 hPa 0,0 l/m 2 min 0 min 430 W/m 12,9 km/h (3 Bft) 97,87 %
31.03.2020 17:24 11,2 C 14,4 C 13,9 C 47 % 1028,8 hPa 0,0 l/m 2 min 0 min 427 W/m 9,7 km/h (2 Bft) 97,83 %
31.03.2020 17:26 11,2 C 14,4 C 12,2 C 46 % 1028,8 hPa 0,0 l/m 2 min 0 min 423 W/m 12,9 km/h (3 Bft) 97,87 %
31.03.2020 17:28 11,2 C 14,4 C 11,1 C 45 % 1028,7 hPa 0,0 l/m 2 min 0 min 416 W/m 9,7 km/h (2 Bft) 97,87 %
31.03.2020 17:30 11,2 C 15,0 C 10,6 C 47 % 1028,7 hPa 0,0 l/m 2 min 0 min 412 W/m 12,9 km/h (3 Bft) 97,87 %
31.03.2020 17:32 11,2 C 14,4 C 10,0 C 46 % 1028,7 hPa 0,0 l/m 2 min 0 min 408 W/m 9,7 km/h (2 Bft) 95,74 %
31.03.2020 17:34 11,2 C 14,4 C 9,4 C 47 % 1028,6 hPa 0,0 l/m 2 min 0 min 402 W/m 9,7 km/h (2 Bft) 95,74 %
31.03.2020 17:36 11,2 C 14,4 C 9,4 C 47 % 1028,6 hPa 0,0 l/m 2 min 0 min 398 W/m 12,9 km/h (3 Bft) 97,83 %
31.03.2020 17:38 11,2 C 13,9 C 8,9 C 47 % 1028,6 hPa 0,0 l/m 2 min 0 min 396 W/m 9,7 km/h (2 Bft) 97,87 %
31.03.2020 17:40 11,1 C 13,9 C 8,9 C 47 % 1028,5 hPa 0,0 l/m 2 min 0 min 388 W/m 6,4 km/h (2 Bft) 97,87 %
31.03.2020 17:42 11,1 C 13,9 C 8,9 C 47 % 1028,6 hPa 0,0 l/m 2 min 0 min 382 W/m 6,4 km/h (2 Bft) 95,74 %
31.03.2020 17:44 11,1 C 13,9 C 8,9 C 46 % 1028,5 hPa 0,0 l/m 2 min 0 min 373 W/m 6,4 km/h (2 Bft) 95,74 %
31.03.2020 17:46 11,1 C 13,3 C 8,9 C 46 % 1028,6 hPa 0,0 l/m 2 min 0 min 367 W/m 9,7 km/h (2 Bft) 100,00 %
31.03.2020 17:48 10,9 C 12,8 C 8,3 C 46 % 1028,5 hPa 0,0 l/m 2 min 0 min 359 W/m 12,9 km/h (3 Bft) 97,87 %
31.03.2020 17:50 10,9 C 12,8 C 8,3 C 45 % 1028,6 hPa 0,0 l/m 2 min 0 min 352 W/m 12,9 km/h (3 Bft) 97,87 %
31.03.2020 17:52 10,8 C 12,8 C 7,8 C 46 % 1028,6 hPa 0,0 l/m 2 min 0 min 348 W/m 6,4 km/h (2 Bft) 97,87 %
31.03.2020 17:54 10,8 C 12,8 C 7,8 C 46 % 1028,6 hPa 0,0 l/m 2 min 0 min 343 W/m 16,1 km/h (3 Bft) 95,74 %
31.03.2020 17:56 10,7 C 12,8 C 7,8 C 46 % 1028,6 hPa 0,0 l/m 2 min 0 min 335 W/m 16,1 km/h (3 Bft) 93,62 %
31.03.2020 17:58 10,7 C 12,2 C 7,8 C 46 % 1028,5 hPa 0,0 l/m 2 min 0 min 329 W/m 12,9 km/h (3 Bft) 95,65 %
31.03.2020 18:00 10,6 C 12,2 C 7,8 C 45 % 1028,5 hPa 0,0 l/m 2 min 0 min 323 W/m 9,7 km/h (2 Bft) 95,74 %
31.03.2020 18:02 10,4 C 12,2 C 7,8 C 45 % 1028,5 hPa 0,0 l/m 2 min 0 min 316 W/m 6,4 km/h (2 Bft) 93,62 %
31.03.2020 18:04 10,3 C 10,6 C 7,8 C 46 % 1028,5 hPa 0,0 l/m 2 min 0 min 310 W/m 12,9 km/h (3 Bft) 95,74 %
31.03.2020 18:08 10,1 C 8,9 C 7,8 C 45 % 1028,4 hPa 0,0 l/m 4 min 0 min 288 W/m 9,7 km/h (2 Bft) 95,74 %
31.03.2020 18:10 10,0 C 8,9 C 7,8 C 45 % 1028,5 hPa 0,0 l/m 0 min 0 min 107 W/m 3,2 km/h (1 Bft) 95,65 %
31.03.2020 18:12 9,9 C 8,3 C 7,8 C 46 % 1028,5 hPa 0,0 l/m 0 min 0 min 51 W/m 6,4 km/h (2 Bft) 93,62 %
31.03.2020 18:14 9,8 C 8,3 C 7,8 C 46 % 1028,5 hPa 0,0 l/m 0 min 0 min 48 W/m 12,9 km/h (3 Bft) 95,74 %
31.03.2020 18:16 9,7 C 8,3 C 7,2 C 46 % 1028,4 hPa 0,0 l/m 0 min 0 min 47 W/m 9,7 km/h (2 Bft) 95,74 %
31.03.2020 18:18 9,6 C 8,3 C 7,2 C 46 % 1028,4 hPa 0,0 l/m 0 min 0 min 47 W/m 12,9 km/h (3 Bft) 95,74 %
31.03.2020 18:20 9,4 C 8,3 C 7,2 C 46 % 1028,4 hPa 0,0 l/m 0 min 0 min 46 W/m 9,7 km/h (2 Bft) 97,87 %
31.03.2020 18:22 9,4 C 8,3 C 7,2 C 46 % 1028,4 hPa 0,0 l/m 0 min 0 min 46 W/m 3,2 km/h (1 Bft) 95,65 %
31.03.2020 18:24 9,3 C 7,8 C 7,2 C 47 % 1028,4 hPa 0,0 l/m 0 min 0 min 45 W/m 6,4 km/h (2 Bft) 97,87 %
31.03.2020 18:26 9,3 C 7,8 C 7,2 C 47 % 1028,5 hPa 0,0 l/m 0 min 0 min 44 W/m 9,7 km/h (2 Bft) 100,00 %
31.03.2020 18:28 9,2 C 7,8 C 7,2 C 47 % 1028,5 hPa 0,0 l/m 0 min 0 min 44 W/m 12,9 km/h (3 Bft) 97,87 %
31.03.2020 18:30 9,1 C 7,8 C 7,2 C 47 % 1028,5 hPa 0,0 l/m 0 min 0 min 43 W/m 12,9 km/h (3 Bft) 95,74 %
31.03.2020 18:32 9,1 C 7,8 C 7,2 C 47 % 1028,5 hPa 0,0 l/m 0 min 0 min 42 W/m 6,4 km/h (2 Bft) 95,74 %
31.03.2020 18:34 9,0 C 7,8 C 7,2 C 47 % 1028,5 hPa 0,0 l/m 0 min 0 min 42 W/m 6,4 km/h (2 Bft) 97,83 %
31.03.2020 18:36 8,9 C 7,8 C 7,2 C 47 % 1028,5 hPa 0,0 l/m 0 min 0 min 41 W/m 16,1 km/h (3 Bft) 97,87 %
31.03.2020 18:38 8,8 C 7,8 C 7,2 C 48 % 1028,5 hPa 0,0 l/m 0 min 0 min 40 W/m 6,4 km/h (2 Bft) 97,87 %
31.03.2020 18:40 8,8 C 7,8 C 7,2 C 49 % 1028,5 hPa 0,0 l/m 0 min 0 min 40 W/m 9,7 km/h (2 Bft) 97,87 %
31.03.2020 18:42 8,8 C 7,8 C 7,2 C 48 % 1028,5 hPa 0,0 l/m 0 min 0 min 39 W/m 9,7 km/h (2 Bft) 97,87 %
31.03.2020 18:44 8,7 C 7,8 C 7,2 C 48 % 1028,5 hPa 0,0 l/m 0 min 0 min 39 W/m 6,4 km/h (2 Bft) 97,87 %
31.03.2020 18:46 8,7 C 7,8 C 7,2 C 48 % 1028,5 hPa 0,0 l/m 0 min 0 min 39 W/m 9,7 km/h (2 Bft) 97,83 %
31.03.2020 18:48 8,7 C 7,8 C 7,2 C 49 % 1028,5 hPa 0,0 l/m 0 min 0 min 37 W/m 12,9 km/h (3 Bft) 97,87 %
31.03.2020 18:50 8,6 C 7,8 C 6,7 C 49 % 1028,5 hPa 0,0 l/m 0 min 0 min 37 W/m 6,4 km/h (2 Bft) 100,00 %
31.03.2020 18:52 8,6 C 7,8 C 6,7 C 49 % 1028,5 hPa 0,0 l/m 0 min 0 min 36 W/m 6,4 km/h (2 Bft) 100,00 %
31.03.2020 18:54 8,6 C 7,8 C 6,7 C 49 % 1028,4 hPa 0,0 l/m 0 min 0 min 35 W/m 12,9 km/h (3 Bft) 100,00 %
31.03.2020 18:56 8,5 C 7,8 C 6,7 C 49 % 1028,4 hPa 0,0 l/m 0 min 0 min 35 W/m 9,7 km/h (2 Bft) 100,00 %
31.03.2020 18:58 8,5 C 7,2 C 6,7 C 51 % 1028,5 hPa 0,0 l/m 0 min 0 min 33 W/m 6,4 km/h (2 Bft) 97,87 %
31.03.2020 19:00 8,4 C 7,2 C 6,7 C 50 % 1028,5 hPa 0,0 l/m 0 min 0 min 33 W/m 6,4 km/h (2 Bft) 100,00 %
31.03.2020 19:02 8,4 C 7,2 C 6,7 C 50 % 1028,5 hPa 0,0 l/m 0 min 0 min 32 W/m 6,4 km/h (2 Bft) 97,87 %
31.03.2020 19:04 8,4 C 7,2 C 6,7 C 50 % 1028,5 hPa 0,0 l/m 0 min 0 min 32 W/m 16,1 km/h (3 Bft) 100,00 %
31.03.2020 19:06 8,3 C 7,2 C 6,7 C 49 % 1028,5 hPa 0,0 l/m 0 min 0 min 31 W/m 9,7 km/h (2 Bft) 100,00 %
31.03.2020 19:08 8,3 C 7,2 C 6,7 C 50 % 1028,5 hPa 0,0 l/m 0 min 0 min 30 W/m 6,4 km/h (2 Bft) 100,00 %
31.03.2020 19:10 8,3 C 7,2 C 6,7 C 49 % 1028,5 hPa 0,0 l/m 0 min 0 min 30 W/m 6,4 km/h (2 Bft) 100,00 %
31.03.2020 19:12 8,2 C 7,2 C 6,7 C 49 % 1028,5 hPa 0,0 l/m 0 min 0 min 28 W/m 6,4 km/h (2 Bft) 100,00 %
31.03.2020 19:14 8,2 C 7,2 C 6,1 C 49 % 1028,5 hPa 0,0 l/m 0 min 0 min 28 W/m 6,4 km/h (2 Bft) 100,00 %
31.03.2020 19:16 8,2 C 7,2 C 6,1 C 50 % 1028,4 hPa 0,0 l/m 0 min 0 min 27 W/m 6,4 km/h (2 Bft) 97,87 %
31.03.2020 19:18 8,1 C 7,2 C 6,1 C 50 % 1028,5 hPa 0,0 l/m 0 min 0 min 26 W/m 3,2 km/h (1 Bft) 100,00 %
31.03.2020 19:20 8,1 C 6,7 C 6,1 C 50 % 1028,5 hPa 0,0 l/m 0 min 0 min 26 W/m 6,4 km/h (2 Bft) 97,83 %
31.03.2020 19:22 8,0 C 6,7 C 6,1 C 50 % 1028,5 hPa 0,0 l/m 0 min 0 min 25 W/m 9,7 km/h (2 Bft) 97,87 %
31.03.2020 19:24 8,0 C 6,7 C 6,1 C 51 % 1028,5 hPa 0,0 l/m 0 min 0 min 25 W/m 6,4 km/h (2 Bft) 97,87 %
31.03.2020 19:26 7,9 C 6,7 C 6,1 C 51 % 1028,4 hPa 0,0 l/m 0 min 0 min 23 W/m 3,2 km/h (1 Bft) 97,87 %
31.03.2020 19:28 7,9 C 6,7 C 6,1 C 51 % 1028,4 hPa 0,0 l/m 0 min 0 min 23 W/m 6,4 km/h (2 Bft) 97,87 %
31.03.2020 19:30 7,9 C 6,7 C 5,6 C 52 % 1028,4 hPa 0,0 l/m 0 min 0 min 21 W/m 6,4 km/h (2 Bft) 97,87 %
31.03.2020 19:32 7,8 C 6,7 C 5,6 C 52 % 1028,4 hPa 0,0 l/m 0 min 0 min 21 W/m 3,2 km/h (1 Bft) 95,65 %
31.03.2020 19:34 7,8 C 6,1 C 5,6 C 52 % 1028,5 hPa 0,0 l/m 0 min 0 min 20 W/m 0,0 km/h (0 Bft) 95,74 %
31.03.2020 19:36 7,8 C 6,1 C 5,6 C 52 % 1028,5 hPa 0,0 l/m 0 min 0 min 19 W/m 0,0 km/h (0 Bft) 95,74 %
31.03.2020 19:38 7,7 C 6,1 C 5,6 C 52 % 1028,5 hPa 0,0 l/m 0 min 0 min 18 W/m 0,0 km/h (0 Bft) 91,49 %
31.03.2020 19:40 7,7 C 6,1 C 5,6 C 53 % 1028,4 hPa 0,0 l/m 0 min 0 min 18 W/m 0,0 km/h (0 Bft) 95,74 %
31.03.2020 19:42 7,7 C 6,1 C 5,0 C 53 % 1028,4 hPa 0,0 l/m 0 min 0 min 16 W/m 0,0 km/h (0 Bft) 95,74 %
31.03.2020 19:44 7,6 C 5,6 C 5,0 C 53 % 1028,4 hPa 0,0 l/m 0 min 0 min 16 W/m 0,0 km/h (0 Bft) 95,65 %
31.03.2020 19:46 7,6 C 5,6 C 5,0 C 53 % 1028,4 hPa 0,0 l/m 0 min 0 min 14 W/m 0,0 km/h (0 Bft) 97,87 %
31.03.2020 19:48 7,5 C 5,6 C 5,0 C 53 % 1028,4 hPa 0,0 l/m 0 min 0 min 14 W/m 0,0 km/h (0 Bft) 97,87 %
31.03.2020 19:50 7,4 C 5,6 C 5,0 C 54 % 1028,4 hPa 0,0 l/m 0 min 0 min 12 W/m 0,0 km/h (0 Bft) 97,87 %
31.03.2020 19:52 7,4 C 5,6 C 5,0 C 54 % 1028,4 hPa 0,0 l/m 0 min 0 min 12 W/m 0,0 km/h (0 Bft) 95,74 %
31.03.2020 19:54 7,3 C 5,6 C 5,0 C 54 % 1028,4 hPa 0,0 l/m 0 min 0 min 11 W/m 0,0 km/h (0 Bft) 97,83 %
31.03.2020 19:56 7,3 C 5,6 C 4,4 C 54 % 1028,4 hPa 0,0 l/m 0 min 0 min 11 W/m 0,0 km/h (0 Bft) 97,87 %
31.03.2020 19:58 7,2 C 5,6 C 4,4 C 55 % 1028,4 hPa 0,0 l/m 0 min 0 min 9 W/m 0,0 km/h (0 Bft) 97,87 %
31.03.2020 20:00 7,2 C 5,6 C 4,4 C 55 % 1028,4 hPa 0,0 l/m 0 min 0 min 8 W/m 0,0 km/h (0 Bft) 97,87 %
31.03.2020 20:02 7,1 C 5,0 C 4,4 C 55 % 1028,4 hPa 0,0 l/m 0 min 0 min 7 W/m 0,0 km/h (0 Bft) 91,67 %
31.03.2020 20:04 7,1 C 5,0 C 4,4 C 55 % 1028,5 hPa 0,0 l/m 0 min 0 min 6 W/m 0,0 km/h (0 Bft) 97,87 %
31.03.2020 20:06 7,1 C 5,0 C 4,4 C 55 % 1028,5 hPa 0,0 l/m 0 min 0 min 5 W/m 0,0 km/h (0 Bft) 97,83 %
31.03.2020 20:08 7,0 C 5,0 C 3,9 C 55 % 1028,5 hPa 0,0 l/m 0 min 0 min 4 W/m 0,0 km/h (0 Bft) 97,87 %
31.03.2020 20:10 6,9 C 5,0 C 3,9 C 55 % 1028,5 hPa 0,0 l/m 0 min 0 min 0 W/m 0,0 km/h (0 Bft) 97,87 %
31.03.2020 20:12 6,9 C 5,0 C 3,9 C 56 % 1028,6 hPa 0,0 l/m 0 min 0 min 0 W/m 0,0 km/h (0 Bft) 95,74 %
31.03.2020 20:14 6,8 C 5,0 C 3,9 C 56 % 1028,6 hPa 0,0 l/m 0 min 0 min 0 W/m 0,0 km/h (0 Bft) 97,87 %
31.03.2020 20:16 6,8 C 5,0 C 3,9 C 56 % 1028,5 hPa 0,0 l/m 0 min 0 min 0 W/m 0,0 km/h (0 Bft) 97,87 %
31.03.2020 20:18 6,7 C 5,0 C 3,9 C 56 % 1028,5 hPa 0,0 l/m 0 min 0 min 0 W/m 0,0 km/h (0 Bft) 97,83 %
31.03.2020 20:20 6,7 C 4,4 C 3,9 C 56 % 1028,5 hPa 0,0 l/m 0 min 0 min 0 W/m 0,0 km/h (0 Bft) 97,87 %
31.03.2020 20:22 6,6 C 4,4 C 3,9 C 56 % 1028,5 hPa 0,0 l/m 0 min 0 min 0 W/m 0,0 km/h (0 Bft) 95,74 %
31.03.2020 20:24 6,6 C 4,4 C 3,3 C 56 % 1028,6 hPa 0,0 l/m 0 min 0 min 0 W/m 0,0 km/h (0 Bft) 97,87 %
31.03.2020 20:26 6,5 C 4,4 C 3,3 C 56 % 1028,5 hPa 0,0 l/m 0 min 0 min 0 W/m 0,0 km/h (0 Bft) 97,87 %
31.03.2020 20:28 6,5 C 4,4 C 3,3 C 56 % 1028,5 hPa 0,0 l/m 0 min 0 min 0 W/m 0,0 km/h (0 Bft) 97,87 %
31.03.2020 20:30 6,4 C 4,4 C 3,3 C 56 % 1028,5 hPa 0,0 l/m 0 min 0 min 0 W/m 0,0 km/h (0 Bft) 97,83 %
31.03.2020 20:32 6,4 C 4,4 C 3,3 C 56 % 1028,5 hPa 0,0 l/m 0 min 0 min 0 W/m 0,0 km/h (0 Bft) 97,87 %
31.03.2020 20:34 6,3 C 4,4 C 3,3 C 56 % 1028,5 hPa 0,0 l/m 0 min 0 min 0 W/m 0,0 km/h (0 Bft) 97,87 %
31.03.2020 20:36 6,2 C 3,9 C 2,8 C 57 % 1028,5 hPa 0,0 l/m 0 min 0 min 0 W/m 0,0 km/h (0 Bft) 97,87 %
31.03.2020 20:38 6,2 C 3,9 C 2,8 C 57 % 1028,5 hPa 0,0 l/m 0 min 0 min 0 W/m 0,0 km/h (0 Bft) 97,87 %
31.03.2020 20:40 6,1 C 3,9 C 2,8 C 57 % 1028,5 hPa 0,0 l/m 0 min 0 min 0 W/m 0,0 km/h (0 Bft) 97,83 %
31.03.2020 20:42 6,1 C 3,9 C 2,8 C 57 % 1028,4 hPa 0,0 l/m 0 min 0 min 0 W/m 0,0 km/h (0 Bft) 95,74 %
31.03.2020 20:44 6,0 C 3,9 C 2,8 C 58 % 1028,4 hPa 0,0 l/m 0 min 0 min 0 W/m 0,0 km/h (0 Bft) 97,87 %
31.03.2020 20:46 5,9 C 3,9 C 2,8 C 58 % 1028,5 hPa 0,0 l/m 0 min 0 min 0 W/m 0,0 km/h (0 Bft) 95,74 %
31.03.2020 20:48 5,8 C 3,9 C 2,8 C 58 % 1028,5 hPa 0,0 l/m 0 min 0 min 0 W/m 0,0 km/h (0 Bft) 97,87 %
31.03.2020 20:50 5,8 C 3,9 C 2,8 C 58 % 1028,5 hPa 0,0 l/m 0 min 0 min 0 W/m 0,0 km/h (0 Bft) 97,87 %
31.03.2020 20:52 5,7 C 3,9 C 2,8 C 58 % 1028,5 hPa 0,0 l/m 0 min 0 min 0 W/m 0,0 km/h (0 Bft) 95,65 %
31.03.2020 20:54 5,7 C 3,3 C 2,8 C 58 % 1028,5 hPa 0,0 l/m 0 min 0 min 0 W/m 0,0 km/h (0 Bft) 95,74 %
31.03.2020 20:56 5,7 C 3,3 C 2,8 C 58 % 1028,4 hPa 0,0 l/m 0 min 0 min 0 W/m 0,0 km/h (0 Bft) 97,87 %
31.03.2020 20:58 5,6 C 3,3 C 2,2 C 58 % 1028,5 hPa 0,0 l/m 0 min 0 min 0 W/m 0,0 km/h (0 Bft) 93,62 %
31.03.2020 21:00 5,6 C 3,3 C 2,2 C 58 % 1028,4 hPa 0,0 l/m 0 min 0 min 0 W/m 0,0 km/h (0 Bft) 95,74 %
31.03.2020 21:02 5,5 C 2,8 C 2,2 C 59 % 1028,4 hPa 0,0 l/m 0 min 0 min 0 W/m 0,0 km/h (0 Bft) 97,87 %
31.03.2020 21:04 5,5 C 2,8 C 2,2 C 59 % 1028,4 hPa 0,0 l/m 0 min 0 min 0 W/m 0,0 km/h (0 Bft) 95,65 %
31.03.2020 21:06 5,4 C 2,8 C 2,2 C 59 % 1028,5 hPa 0,0 l/m 0 min 0 min 0 W/m 0,0 km/h (0 Bft) 100,00 %
31.03.2020 21:08 5,3 C 2,8 C 2,2 C 59 % 1028,5 hPa 0,0 l/m 0 min 0 min 0 W/m 0,0 km/h (0 Bft) 95,74 %
31.03.2020 21:10 5,3 C 2,8 C 1,7 C 59 % 1028,4 hPa 0,0 l/m 0 min 0 min 0 W/m 0,0 km/h (0 Bft) 97,87 %
31.03.2020 21:12 5,2 C 2,8 C 1,7 C 59 % 1028,4 hPa 0,0 l/m 0 min 0 min 0 W/m 0,0 km/h (0 Bft) 97,87 %
31.03.2020 21:14 5,2 C 2,8 C 1,7 C 59 % 1028,4 hPa 0,0 l/m 0 min 0 min 0 W/m 0,0 km/h (0 Bft) 97,87 %
31.03.2020 21:16 5,1 C 2,8 C 1,7 C 59 % 1028,4 hPa 0,0 l/m 0 min 0 min 0 W/m 0,0 km/h (0 Bft) 100,00 %
31.03.2020 21:18 5,1 C 2,8 C 1,7 C 59 % 1028,4 hPa 0,0 l/m 0 min 0 min 0 W/m 0,0 km/h (0 Bft) 97,87 %
31.03.2020 21:20 5,0 C 2,8 C 1,7 C 59 % 1028,4 hPa 0,0 l/m 0 min 0 min 0 W/m 0,0 km/h (0 Bft) 97,87 %
31.03.2020 21:22 4,9 C 2,8 C 1,7 C 59 % 1028,4 hPa 0,0 l/m 0 min 0 min 0 W/m 0,0 km/h (0 Bft) 100,00 %
31.03.2020 21:24 4,9 C 2,8 C 1,7 C 59 % 1028,3 hPa 0,0 l/m 0 min 0 min 0 W/m 0,0 km/h (0 Bft) 100,00 %
31.03.2020 21:26 4,8 C 2,2 C 1,7 C 60 % 1028,4 hPa 0,0 l/m 0 min 0 min 0 W/m 0,0 km/h (0 Bft) 97,87 %
31.03.2020 21:28 4,8 C 2,2 C 1,1 C 60 % 1028,3 hPa 0,0 l/m 0 min 0 min 0 W/m 0,0 km/h (0 Bft) 97,83 %
31.03.2020 21:30 4,7 C 2,2 C 1,1 C 60 % 1028,4 hPa 0,0 l/m 0 min 0 min 0 W/m 0,0 km/h (0 Bft) 100,00 %
31.03.2020 21:32 4,6 C 2,2 C 1,1 C 60 % 1028,3 hPa 0,0 l/m 0 min 0 min 0 W/m 0,0 km/h (0 Bft) 95,74 %
31.03.2020 21:34 4,6 C 2,2 C 1,1 C 60 % 1028,3 hPa 0,0 l/m 0 min 0 min 0 W/m 0,0 km/h (0 Bft) 97,87 %
31.03.2020 21:36 4,5 C 2,2 C 1,1 C 60 % 1028,3 hPa 0,0 l/m 0 min 0 min 0 W/m 0,0 km/h (0 Bft) 97,87 %
31.03.2020 21:38 4,4 C 2,2 C 1,1 C 60 % 1028,3 hPa 0,0 l/m 0 min 0 min 0 W/m 0,0 km/h (0 Bft) 95,65 %
31.03.2020 21:40 4,4 C 2,2 C 1,1 C 61 % 1028,3 hPa 0,0 l/m 0 min 0 min 0 W/m 0,0 km/h (0 Bft) 95,74 %
31.03.2020 21:42 4,3 C 2,2 C 1,1 C 61 % 1028,2 hPa 0,0 l/m 0 min 0 min 0 W/m 0,0 km/h (0 Bft) 95,74 %
31.03.2020 21:44 4,3 C 2,2 C 1,1 C 61 % 1028,3 hPa 0,0 l/m 0 min 0 min 0 W/m 0,0 km/h (0 Bft) 97,87 %
31.03.2020 21:46 4,2 C 2,2 C 1,1 C 61 % 1028,2 hPa 0,0 l/m 0 min 0 min 0 W/m 0,0 km/h (0 Bft) 97,37 %
31.03.2020 21:48 4,2 C 2,2 C 1,1 C 61 % 1028,1 hPa 0,0 l/m 0 min 0 min 0 W/m 0,0 km/h (0 Bft) 97,87 %
31.03.2020 21:50 4,1 C 2,2 C 1,1 C 61 % 1028,1 hPa 0,0 l/m 0 min 0 min 0 W/m 0,0 km/h (0 Bft) 98,11 %
31.03.2020 21:52 4,1 C 1,7 C 0,6 C 62 % 1028,1 hPa 0,0 l/m 0 min 0 min 0 W/m 0,0 km/h (0 Bft) 97,96 %
31.03.2020 21:54 4,1 C 1,7 C 0,6 C 62 % 1028,1 hPa 0,0 l/m 0 min 0 min 0 W/m 0,0 km/h (0 Bft) 65,79 %
31.03.2020 21:56 3,9 C 1,7 C 0,6 C 62 % 1028,1 hPa 0,0 l/m 0 min 0 min 0 W/m 0,0 km/h (0 Bft) 79,07 %
31.03.2020 21:58 3,9 C 1,7 C 0,6 C 62 % 1028,1 hPa 0,0 l/m 0 min 0 min 0 W/m 0,0 km/h (0 Bft) 97,87 %
31.03.2020 22:00 3,8 C 1,7 C 0,6 C 63 % 1028,0 hPa 0,0 l/m 0 min 0 min 0 W/m 0,0 km/h (0 Bft) 97,83 %
31.03.2020 22:02 3,8 C 1,1 C 0,6 C 63 % 1028,0 hPa 0,0 l/m 0 min 0 min 0 W/m 0,0 km/h (0 Bft) 94,34 %
31.03.2020 22:04 3,7 C 1,1 C 0,6 C 63 % 1028,0 hPa 0,0 l/m 0 min 0 min 0 W/m 0,0 km/h (0 Bft) 98,00 %
31.03.2020 22:06 3,7 C 1,7 C 0,6 C 63 % 1028,0 hPa 0,0 l/m 0 min 0 min 0 W/m 0,0 km/h (0 Bft) 97,37 %
31.03.2020 22:08 3,6 C 1,1 C 0,6 C 64 % 1028,0 hPa 0,0 l/m 0 min 0 min 0 W/m 0,0 km/h (0 Bft) 95,74 %
31.03.2020 22:10 3,6 C 1,7 C 0,6 C 64 % 1028,0 hPa 0,0 l/m 0 min 0 min 0 W/m 0,0 km/h (0 Bft) 97,87 %
31.03.2020 22:12 3,5 C 1,1 C 0,6 C 64 % 1028,0 hPa 0,0 l/m 0 min 0 min 0 W/m 0,0 km/h (0 Bft) 96,23 %
31.03.2020 22:14 3,4 C 1,7 C 0,6 C 64 % 1027,9 hPa 0,0 l/m 0 min 0 min 0 W/m 0,0 km/h (0 Bft) 93,88 %
31.03.2020 22:16 3,4 C 1,1 C 0,6 C 64 % 1027,9 hPa 0,0 l/m 0 min 0 min 0 W/m 0,0 km/h (0 Bft) 97,37 %
31.03.2020 22:18 3,3 C 1,1 C 0,0 C 64 % 1027,9 hPa 0,0 l/m 0 min 0 min 0 W/m 0,0 km/h (0 Bft) 93,62 %
31.03.2020 22:20 3,3 C 1,1 C 0,0 C 65 % 1027,9 hPa 0,0 l/m 0 min 0 min 0 W/m 0,0 km/h (0 Bft) 96,23 %
31.03.2020 22:22 3,2 C 1,1 C 0,0 C 65 % 1027,8 hPa 0,0 l/m 0 min 0 min 0 W/m 0,0 km/h (0 Bft) 95,74 %
31.03.2020 22:24 3,2 C 1,1 C 0,0 C 65 % 1027,8 hPa 0,0 l/m 0 min 0 min 0 W/m 0,0 km/h (0 Bft) 95,74 %
31.03.2020 22:26 3,1 C 1,1 C 0,0 C 65 % 1027,8 hPa 0,0 l/m 0 min 0 min 0 W/m 0,0 km/h (0 Bft) 95,92 %
31.03.2020 22:28 3,1 C 1,1 C 0,0 C 65 % 1027,8 hPa 0,0 l/m 0 min 0 min 0 W/m 0,0 km/h (0 Bft) 95,74 %
31.03.2020 22:30 3,0 C 1,1 C 0,0 C 65 % 1027,8 hPa 0,0 l/m 0 min 0 min 0 W/m 0,0 km/h (0 Bft) 94,74 %
31.03.2020 22:32 2,9 C 0,6 C 0,0 C 65 % 1027,8 hPa 0,0 l/m 0 min 0 min 0 W/m 0,0 km/h (0 Bft) 97,87 %
31.03.2020 22:34 2,9 C 0,6 C 0,0 C 66 % 1027,7 hPa 0,0 l/m 0 min 0 min 0 W/m 0,0 km/h (0 Bft) 96,23 %
31.03.2020 22:36 2,8 C 0,6 C 0,0 C 66 % 1027,8 hPa 0,0 l/m 0 min 0 min 0 W/m 0,0 km/h (0 Bft) 97,87 %
31.03.2020 22:38 2,8 C 0,6 C 0,0 C 66 % 1027,8 hPa 0,0 l/m 0 min 0 min 0 W/m 0,0 km/h (0 Bft) 97,96 %
31.03.2020 22:40 2,7 C 0,6 C 0,0 C 66 % 1027,8 hPa 0,0 l/m 0 min 0 min 0 W/m 0,0 km/h (0 Bft) 97,37 %
31.03.2020 22:42 2,7 C 0,6 C 0,0 C 66 % 1027,8 hPa 0,0 l/m 0 min 0 min 0 W/m 0,0 km/h (0 Bft) 95,74 %
31.03.2020 22:44 2,7 C 0,6 C 0,0 C 66 % 1027,8 hPa 0,0 l/m 0 min 0 min 0 W/m 0,0 km/h (0 Bft) 95,74 %
31.03.2020 22:46 2,6 C 0,6 C 0,0 C 66 % 1027,8 hPa 0,0 l/m 0 min 0 min 0 W/m 0,0 km/h (0 Bft) 97,83 %
31.03.2020 22:48 2,6 C 0,6 C -0,6 C 66 % 1027,8 hPa 0,0 l/m 0 min 0 min 0 W/m 0,0 km/h (0 Bft) 95,74 %
31.03.2020 22:50 2,5 C 0,6 C -0,6 C 67 % 1027,7 hPa 0,0 l/m 0 min 0 min 0 W/m 0,0 km/h (0 Bft) 97,87 %
31.03.2020 22:52 2,4 C 0,6 C -0,6 C 67 % 1027,7 hPa 0,0 l/m 0 min 0 min 0 W/m 0,0 km/h (0 Bft) 100,00 %
31.03.2020 22:54 2,4 C 0,6 C -0,6 C 67 % 1027,7 hPa 0,0 l/m 0 min 0 min 0 W/m 0,0 km/h (0 Bft) 100,00 %
31.03.2020 22:56 2,4 C 0,6 C -0,6 C 67 % 1027,7 hPa 0,0 l/m 0 min 0 min 0 W/m 0,0 km/h (0 Bft) 100,00 %
31.03.2020 22:58 2,3 C 0,6 C -0,6 C 67 % 1027,7 hPa 0,0 l/m 0 min 0 min 0 W/m 0,0 km/h (0 Bft) 94,74 %
31.03.2020 23:00 2,3 C 0,0 C -0,6 C 67 % 1027,7 hPa 0,0 l/m 0 min 0 min 0 W/m 0,0 km/h (0 Bft) 100,00 %
31.03.2020 23:02 2,2 C 0,0 C -0,6 C 67 % 1027,7 hPa 0,0 l/m 0 min 0 min 0 W/m 0,0 km/h (0 Bft) 100,00 %
31.03.2020 23:04 2,2 C 0,0 C -0,6 C 67 % 1027,7 hPa 0,0 l/m 0 min 0 min 0 W/m 0,0 km/h (0 Bft) 100,00 %
31.03.2020 23:06 2,1 C 0,0 C -0,6 C 67 % 1027,7 hPa 0,0 l/m 0 min 0 min 0 W/m 0,0 km/h (0 Bft) 100,00 %
31.03.2020 23:08 2,1 C 0,0 C -0,6 C 68 % 1027,7 hPa 0,0 l/m 0 min 0 min 0 W/m 0,0 km/h (0 Bft) 100,00 %
31.03.2020 23:10 2,1 C 0,0 C -0,6 C 68 % 1027,7 hPa 0,0 l/m 0 min 0 min 0 W/m 0,0 km/h (0 Bft) 100,00 %
31.03.2020 23:12 2,0 C 0,0 C -0,6 C 68 % 1027,7 hPa 0,0 l/m 0 min 0 min 0 W/m 0,0 km/h (0 Bft) 100,00 %
31.03.2020 23:14 1,9 C 0,0 C -0,6 C 68 % 1027,7 hPa 0,0 l/m 0 min 0 min 0 W/m 0,0 km/h (0 Bft) 97,37 %
31.03.2020 23:16 1,9 C 0,0 C -0,6 C 69 % 1027,7 hPa 0,0 l/m 0 min 0 min 0 W/m 0,0 km/h (0 Bft) 100,00 %
31.03.2020 23:18 1,9 C 0,0 C -0,6 C 69 % 1027,7 hPa 0,0 l/m 0 min 0 min 0 W/m 0,0 km/h (0 Bft) 100,00 %
31.03.2020 23:20 1,8 C 0,0 C -1,1 C 69 % 1027,7 hPa 0,0 l/m 0 min 0 min 0 W/m 0,0 km/h (0 Bft) 96,00 %
31.03.2020 23:22 1,8 C 0,0 C -1,1 C 69 % 1027,7 hPa 0,0 l/m 0 min 0 min 0 W/m 0,0 km/h (0 Bft) 100,00 %
31.03.2020 23:24 1,7 C 0,0 C -1,1 C 69 % 1027,7 hPa 0,0 l/m 0 min 0 min 0 W/m 0,0 km/h (0 Bft) 97,87 %
31.03.2020 23:26 1,7 C 0,0 C -1,1 C 69 % 1027,7 hPa 0,0 l/m 0 min 0 min 0 W/m 0,0 km/h (0 Bft) 95,74 %
31.03.2020 23:28 1,6 C 0,0 C -1,1 C 70 % 1027,7 hPa 0,0 l/m 0 min 0 min 0 W/m 0,0 km/h (0 Bft) 94,34 %
31.03.2020 23:30 1,6 C 0,0 C -1,1 C 69 % 1027,7 hPa 0,0 l/m 0 min 0 min 0 W/m 0,0 km/h (0 Bft) 98,00 %
31.03.2020 23:32 1,6 C 0,0 C -1,1 C 70 % 1027,7 hPa 0,0 l/m 0 min 0 min 0 W/m 0,0 km/h (0 Bft) 97,37 %
31.03.2020 23:34 1,5 C 0,0 C -1,1 C 70 % 1027,7 hPa 0,0 l/m 0 min 0 min 0 W/m 0,0 km/h (0 Bft) 97,83 %
31.03.2020 23:36 1,4 C 0,0 C -1,1 C 70 % 1027,6 hPa 0,0 l/m 0 min 0 min 0 W/m 0,0 km/h (0 Bft) 97,87 %
31.03.2020 23:38 1,4 C 0,0 C -1,1 C 70 % 1027,6 hPa 0,0 l/m 0 min 0 min 0 W/m 0,0 km/h (0 Bft) 96,23 %
31.03.2020 23:40 1,4 C 0,0 C -1,1 C 70 % 1027,7 hPa 0,0 l/m 0 min 0 min 0 W/m 0,0 km/h (0 Bft) 97,87 %
31.03.2020 23:42 1,3 C 0,0 C -1,1 C 71 % 1027,6 hPa 0,0 l/m 0 min 0 min 0 W/m 0,0 km/h (0 Bft) 98,00 %
31.03.2020 23:44 1,3 C 0,0 C -1,1 C 71 % 1027,6 hPa 0,0 l/m 0 min 0 min 0 W/m 0,0 km/h (0 Bft) 94,74 %
31.03.2020 23:46 1,2 C 0,0 C -1,1 C 71 % 1027,6 hPa 0,0 l/m 0 min 0 min 0 W/m 0,0 km/h (0 Bft) 100,00 %
31.03.2020 23:48 1,2 C 0,0 C -1,1 C 72 % 1027,6 hPa 0,0 l/m 0 min 0 min 0 W/m 0,0 km/h (0 Bft) 97,87 %
31.03.2020 23:50 1,2 C 0,0 C -1,1 C 72 % 1027,6 hPa 0,0 l/m 0 min 0 min 0 W/m 0,0 km/h (0 Bft) 97,87 %
31.03.2020 23:52 1,1 C 0,0 C -1,1 C 72 % 1027,6 hPa 0,0 l/m 0 min 0 min 0 W/m 0,0 km/h (0 Bft) 100,00 %
31.03.2020 23:54 1,1 C 0,0 C -1,1 C 72 % 1027,5 hPa 0,0 l/m 0 min 0 min 0 W/m 0,0 km/h (0 Bft) 100,00 %
31.03.2020 23:56 1,1 C 0,0 C -1,1 C 72 % 1027,6 hPa 0,0 l/m 0 min 0 min 0 W/m 0,0 km/h (0 Bft) 100,00 %
31.03.2020 23:58 1,1 C 0,0 C -1,1 C 72 % 1027,6 hPa 0,0 l/m 0 min 0 min 0 W/m 0,0 km/h (0 Bft) 97,83 %
_ Min-Zeit 23:52 05:28 23:20 17:16 23:54 - - - - 00:00 08:54
Minimum _ 1,1 C 0,0 C -1,1 C 45 % 1027,5 hPa - - - - 0,0 km/h (0 Bft) 51,16 %
_ Max-Zeit 16:18 14:46 14:16 06:14 10:54 05:28 12:30 00:00 12:46 12:08 00:50
Maximum _ 12,0 C 17,8 C 19,4 C 95 % 1031,7 hPa 0,2 l/m 5 min 0 min 898 W/m 22,5 km/h
W (4 Bft)
100,00 %
Durchschnitt _ 5,8 C 6,8 C 5,1 C 73 % 1029,4 hPa #0,2 l/m #8:30 h #0 min. 420 W/m 5,1 km/h (1 Bft) 97,08 %
© 2020 W. Hausmann